Check out our new PWSWeather beta!
PWSweather.com
Personal Weather Stations
Station Observations
MDTECH
White Bluff, TN 37187

White Bluff, TN 37187

Lat: 36.111655, Lon: -87.214046

Elevation: 817

Station Type: Acu-Right 1035

http://mdtech.tech

High Low Average
Temperature 39.0°F3.9°F 26.6°F-3.0°F 32.9°F0.5°F
Dew Point 36.9°F2.7°F 19.8°F-6.8°F 28.1°F-2.2°F
Winds 10.4 mph -16.7 mph - Calm Calm 1.6 mph 2.6 mph
Wind Gusts 10.4 mph16.7 mph -- 3.9 mph6.3 mph
Humidity 99% 65% 83%
Pressure 30.55 in1034.50 in 30.38 in1028.80 in -
Precipitation 32.32 in820.90 in - -
Hour Temp Dew Point Humidity Winds Wind Gusts Pressure Precip Precip Rate Daily Precip Total
06:12 AM 38.1°F3.4°C 27.4°F-2.6°C 65% Calm Calm -- 30.38 in1028.8 mb 0.50 in12.7 mm 2.50 in63.5 mm 0.50 in12.7 mm
06:13 AM 38.1°F3.4°C 27.4°F-2.6°C 65% Calm Calm -- 30.38 in1028.8 mb 0.50 in12.7 mm 0.00 in0.0 mm 0.50 in12.7 mm
06:14 AM 38.1°F3.4°C 27.4°F-2.6°C 65% 1.7 mph N2.7 kmh N 2.7 mph4.3 kmh 30.39 in1029.1 mb 0.50 in12.7 mm 0.00 in0.0 mm 0.50 in12.7 mm
06:15 AM 38.1°F3.4°C 27.4°F-2.6°C 65% Calm Calm 2.7 mph4.3 kmh 30.39 in1029.1 mb 0.50 in12.7 mm 0.00 in0.0 mm 0.50 in12.7 mm
06:16 AM 38.1°F3.4°C 27.4°F-2.6°C 65% Calm Calm 2.7 mph4.3 kmh 30.39 in1029.1 mb 0.50 in12.7 mm 0.00 in0.0 mm 0.50 in12.7 mm
06:17 AM 38.1°F3.4°C 27.4°F-2.6°C 65% Calm Calm 2.7 mph4.3 kmh 30.39 in1029.1 mb 0.50 in12.7 mm 0.00 in0.0 mm 0.50 in12.7 mm
06:18 AM 38.1°F3.4°C 27.4°F-2.6°C 65% Calm Calm 2.7 mph4.3 kmh 30.39 in1029.1 mb 0.50 in12.7 mm 0.00 in0.0 mm 0.50 in12.7 mm
06:19 AM 38.1°F3.4°C 27.4°F-2.6°C 65% Calm Calm 2.7 mph4.3 kmh 30.39 in1029.1 mb 0.50 in12.7 mm 0.00 in0.0 mm 0.50 in12.7 mm
06:20 AM 38.1°F3.4°C 27.4°F-2.6°C 65% 3.7 mph N6.0 kmh N 3.7 mph6.0 kmh 30.39 in1029.1 mb 0.50 in12.7 mm 0.00 in0.0 mm 0.50 in12.7 mm
06:21 AM 38.1°F3.4°C 27.4°F-2.6°C 65% 2.2 mph N3.5 kmh N 3.7 mph6.0 kmh 30.39 in1029.1 mb 0.50 in12.7 mm 0.00 in0.0 mm 0.50 in12.7 mm
06:22 AM 38.1°F3.4°C 27.4°F-2.6°C 65% Calm Calm 3.7 mph6.0 kmh 30.39 in1029.1 mb 0.50 in12.7 mm 0.00 in0.0 mm 0.50 in12.7 mm
06:23 AM 38.1°F3.4°C 27.4°F-2.6°C 65% Calm Calm 3.7 mph6.0 kmh 30.39 in1029.1 mb 0.50 in12.7 mm 0.00 in0.0 mm 0.50 in12.7 mm
06:24 AM 38.1°F3.4°C 27.4°F-2.6°C 65% 5.8 mph NNE9.3 kmh NNE 5.8 mph9.3 kmh 30.39 in1029.1 mb 0.50 in12.7 mm 0.00 in0.0 mm 0.50 in12.7 mm
06:25 AM 38.1°F3.4°C 27.8°F-2.3°C 66% 1.1 mph N1.8 kmh N 5.8 mph9.3 kmh 30.39 in1029.1 mb 0.50 in12.7 mm 0.00 in0.0 mm 0.50 in12.7 mm
06:26 AM 38.1°F3.4°C 27.8°F-2.3°C 66% Calm Calm 5.8 mph9.3 kmh 30.38 in1028.8 mb 0.50 in12.7 mm 0.00 in0.0 mm 0.50 in12.7 mm
06:27 AM 38.1°F3.4°C 27.8°F-2.3°C 66% 2.2 mph N3.5 kmh N 5.8 mph9.3 kmh 30.38 in1028.8 mb 0.50 in12.7 mm 0.00 in0.0 mm 0.50 in12.7 mm
06:28 AM 38.1°F3.4°C 27.8°F-2.3°C 66% Calm Calm 5.8 mph9.3 kmh 30.38 in1028.8 mb 0.50 in12.7 mm 0.00 in0.0 mm 0.50 in12.7 mm
06:29 AM 38.1°F3.4°C 27.4°F-2.6°C 65% 4.7 mph N7.6 kmh N 5.8 mph9.3 kmh 30.38 in1028.8 mb 0.50 in12.7 mm 0.00 in0.0 mm 0.50 in12.7 mm
06:30 AM 38.1°F3.4°C 27.4°F-2.6°C 65% 2.2 mph NNE3.5 kmh NNE 5.8 mph9.3 kmh 30.38 in1028.8 mb 0.50 in12.7 mm 0.00 in0.0 mm 0.50 in12.7 mm
06:31 AM 38.1°F3.4°C 27.4°F-2.6°C 65% Calm Calm 5.8 mph9.3 kmh 30.38 in1028.8 mb 0.50 in12.7 mm 0.00 in0.0 mm 0.50 in12.7 mm
06:32 AM 38.1°F3.4°C 27.4°F-2.6°C 65% 2.2 mph N3.5 kmh N 5.8 mph9.3 kmh 30.38 in1028.8 mb 0.50 in12.7 mm 0.00 in0.0 mm 0.50 in12.7 mm
06:33 AM 38.1°F3.4°C 27.4°F-2.6°C 65% 3.2 mph N5.1 kmh N 5.8 mph9.3 kmh 30.38 in1028.8 mb 0.50 in12.7 mm 0.00 in0.0 mm 0.50 in12.7 mm
06:34 AM 38.1°F3.4°C 27.8°F-2.3°C 66% 2.7 mph N4.3 kmh N 5.8 mph9.3 kmh 30.38 in1028.8 mb 0.50 in12.7 mm 0.00 in0.0 mm 0.50 in12.7 mm
06:35 AM 38.1°F3.4°C 27.8°F-2.3°C 66% 2.2 mph N3.5 kmh N 4.7 mph7.6 kmh 30.38 in1028.8 mb 0.50 in12.7 mm 0.00 in0.0 mm 0.50 in12.7 mm
06:36 AM 38.1°F3.4°C 27.8°F-2.3°C 66% 4.2 mph N6.8 kmh N 4.7 mph7.6 kmh 30.38 in1028.8 mb 0.50 in12.7 mm 0.00 in0.0 mm 0.50 in12.7 mm
06:37 AM 38.1°F3.4°C 27.4°F-2.6°C 65% 2.7 mph N4.3 kmh N 4.7 mph7.6 kmh 30.38 in1028.8 mb 0.50 in12.7 mm 0.00 in0.0 mm 0.50 in12.7 mm
06:38 AM 38.1°F3.4°C 27.4°F-2.6°C 65% Calm Calm 4.7 mph7.6 kmh 30.40 in1029.5 mb 0.50 in12.7 mm 0.00 in0.0 mm 0.50 in12.7 mm
06:39 AM 38.1°F3.4°C 27.4°F-2.6°C 65% 3.2 mph N5.1 kmh N 4.7 mph7.6 kmh 30.40 in1029.5 mb 0.50 in12.7 mm 0.00 in0.0 mm 0.50 in12.7 mm
06:40 AM 38.1°F3.4°C 27.4°F-2.6°C 65% 1.1 mph N1.8 kmh N 4.7 mph7.6 kmh 30.40 in1029.5 mb 0.50 in12.7 mm 0.00 in0.0 mm 0.50 in12.7 mm
06:41 AM 38.1°F3.4°C 27.4°F-2.6°C 65% Calm Calm 4.7 mph7.6 kmh 30.40 in1029.5 mb 0.50 in12.7 mm 0.00 in0.0 mm 0.50 in12.7 mm
06:42 AM 38.1°F3.4°C 27.4°F-2.6°C 65% Calm Calm 4.2 mph6.8 kmh 30.40 in1029.5 mb 0.50 in12.7 mm 0.00 in0.0 mm 0.50 in12.7 mm
06:43 AM 38.1°F3.4°C 27.4°F-2.6°C 65% Calm Calm 4.2 mph6.8 kmh 30.40 in1029.5 mb 0.50 in12.7 mm 0.00 in0.0 mm 0.50 in12.7 mm
06:44 AM 38.1°F3.4°C 27.4°F-2.6°C 65% Calm Calm 4.2 mph6.8 kmh 30.40 in1029.5 mb 0.50 in12.7 mm 0.00 in0.0 mm 0.50 in12.7 mm
06:45 AM 38.1°F3.4°C 27.4°F-2.6°C 65% Calm Calm 4.2 mph6.8 kmh 30.40 in1029.5 mb 0.50 in12.7 mm 0.00 in0.0 mm 0.50 in12.7 mm
06:46 AM 38.1°F3.4°C 27.8°F-2.3°C 66% 5.8 mph ESE9.3 kmh ESE 5.8 mph9.3 kmh 30.40 in1029.5 mb 0.50 in12.7 mm 0.00 in0.0 mm 0.50 in12.7 mm
06:47 AM 37.9°F3.3°C 27.2°F-2.7°C 65% 1.7 mph NW2.7 kmh NW 5.8 mph9.3 kmh 30.40 in1029.5 mb 0.50 in12.7 mm 0.00 in0.0 mm 0.50 in12.7 mm
06:48 AM 37.9°F3.3°C 27.2°F-2.7°C 65% 2.2 mph N3.5 kmh N 5.8 mph9.3 kmh 30.40 in1029.5 mb 0.50 in12.7 mm 0.00 in0.0 mm 0.50 in12.7 mm
06:49 AM 37.9°F3.3°C 27.2°F-2.7°C 65% Calm Calm 5.8 mph9.3 kmh 30.40 in1029.5 mb 0.50 in12.7 mm 0.00 in0.0 mm 0.50 in12.7 mm
06:50 AM 37.9°F3.3°C 27.2°F-2.7°C 65% 2.2 mph N3.5 kmh N 5.8 mph9.3 kmh 30.39 in1029.1 mb 0.50 in12.7 mm 0.00 in0.0 mm 0.50 in12.7 mm
06:51 AM 37.9°F3.3°C 27.2°F-2.7°C 65% 2.7 mph NW4.3 kmh NW 5.8 mph9.3 kmh 30.39 in1029.1 mb 0.50 in12.7 mm 0.00 in0.0 mm 0.50 in12.7 mm
06:52 AM 37.9°F3.3°C 27.2°F-2.7°C 65% 1.7 mph N2.7 kmh N 5.8 mph9.3 kmh 30.39 in1029.1 mb 0.50 in12.7 mm 0.00 in0.0 mm 0.50 in12.7 mm
06:53 AM 37.9°F3.3°C 27.2°F-2.7°C 65% 1.7 mph N2.7 kmh N 5.8 mph9.3 kmh 30.39 in1029.1 mb 0.50 in12.7 mm 0.00 in0.0 mm 0.50 in12.7 mm
06:54 AM 37.9°F3.3°C 27.2°F-2.7°C 65% Calm Calm 5.8 mph9.3 kmh 30.39 in1029.1 mb 0.50 in12.7 mm 0.00 in0.0 mm 0.50 in12.7 mm
06:55 AM 37.9°F3.3°C 27.2°F-2.7°C 65% 4.7 mph ENE7.6 kmh ENE 5.8 mph9.3 kmh 30.39 in1029.1 mb 0.50 in12.7 mm 0.00 in0.0 mm 0.50 in12.7 mm
06:56 AM 37.9°F3.3°C 27.2°F-2.7°C 65% 2.7 mph N4.3 kmh N 5.8 mph9.3 kmh 30.39 in1029.1 mb 0.50 in12.7 mm 0.00 in0.0 mm 0.50 in12.7 mm
06:57 AM 37.9°F3.3°C 27.2°F-2.7°C 65% 3.7 mph N6.0 kmh N 5.3 mph8.5 kmh 30.39 in1029.1 mb 0.50 in12.7 mm 0.00 in0.0 mm 0.50 in12.7 mm
06:58 AM 37.9°F3.3°C 27.2°F-2.7°C 65% 1.7 mph N2.7 kmh N 5.3 mph8.5 kmh 30.39 in1029.1 mb 0.50 in12.7 mm 0.00 in0.0 mm 0.50 in12.7 mm
06:59 AM 37.9°F3.3°C 27.2°F-2.7°C 65% Calm Calm 5.3 mph8.5 kmh 30.39 in1029.1 mb 0.50 in12.7 mm 0.00 in0.0 mm 0.50 in12.7 mm
07:00 AM 37.9°F3.3°C 27.6°F-2.4°C 66% Calm Calm 5.3 mph8.5 kmh 30.39 in1029.1 mb 0.50 in12.7 mm 0.00 in0.0 mm 0.50 in12.7 mm
07:01 AM 37.9°F3.3°C 27.6°F-2.4°C 66% Calm Calm 5.3 mph8.5 kmh 30.39 in1029.1 mb 0.50 in12.7 mm 0.00 in0.0 mm 0.50 in12.7 mm
07:02 AM 37.9°F3.3°C 27.6°F-2.4°C 66% 4.2 mph NW6.8 kmh NW 5.3 mph8.5 kmh 30.40 in1029.5 mb 0.50 in12.7 mm 0.00 in0.0 mm 0.50 in12.7 mm
07:03 AM 37.9°F3.3°C 27.6°F-2.4°C 66% 2.7 mph N4.3 kmh N 5.3 mph8.5 kmh 30.40 in1029.5 mb 0.50 in12.7 mm 0.00 in0.0 mm 0.50 in12.7 mm
07:04 AM 37.9°F3.3°C 27.6°F-2.4°C 66% Calm Calm 5.3 mph8.5 kmh 30.40 in1029.5 mb 0.50 in12.7 mm 0.00 in0.0 mm 0.50 in12.7 mm
07:05 AM 37.9°F3.3°C 27.6°F-2.4°C 66% Calm Calm 5.3 mph8.5 kmh 30.40 in1029.5 mb 0.50 in12.7 mm 0.00 in0.0 mm 0.50 in12.7 mm
07:06 AM 37.9°F3.3°C 27.6°F-2.4°C 66% Calm Calm 5.3 mph8.5 kmh 30.40 in1029.5 mb 0.50 in12.7 mm 0.00 in0.0 mm 0.50 in12.7 mm
07:07 AM 37.9°F3.3°C 27.6°F-2.4°C 66% 1.7 mph N2.7 kmh N 5.3 mph8.5 kmh 30.40 in1029.5 mb 0.50 in12.7 mm 0.00 in0.0 mm 0.50 in12.7 mm
07:08 AM 37.9°F3.3°C 27.6°F-2.4°C 66% 2.7 mph N4.3 kmh N 4.2 mph6.8 kmh 30.40 in1029.5 mb 0.50 in12.7 mm 0.00 in0.0 mm 0.50 in12.7 mm
07:09 AM 37.9°F3.3°C 27.6°F-2.4°C 66% Calm Calm 4.2 mph6.8 kmh 30.40 in1029.5 mb 0.50 in12.7 mm 0.00 in0.0 mm 0.50 in12.7 mm
07:10 AM 37.9°F3.3°C 27.6°F-2.4°C 66% Calm Calm 4.2 mph6.8 kmh 30.40 in1029.5 mb 0.50 in12.7 mm 0.00 in0.0 mm 0.50 in12.7 mm
07:11 AM 37.9°F3.3°C 27.6°F-2.4°C 66% 1.7 mph N2.7 kmh N 4.2 mph6.8 kmh 30.40 in1029.5 mb 0.50 in12.7 mm 0.00 in0.0 mm 0.50 in12.7 mm
07:12 AM 37.9°F3.3°C 27.6°F-2.4°C 66% 1.7 mph N2.7 kmh N 4.2 mph6.8 kmh 30.40 in1029.5 mb 0.50 in12.7 mm 0.00 in0.0 mm 0.50 in12.7 mm
07:13 AM 37.9°F3.3°C 27.6°F-2.4°C 66% 3.7 mph N6.0 kmh N 4.2 mph6.8 kmh 30.40 in1029.5 mb 0.00 in0.0 mm 0.00 in0.0 mm 0.50 in12.7 mm
07:14 AM 37.9°F3.3°C 27.6°F-2.4°C 66% 2.7 mph N4.3 kmh N 4.2 mph6.8 kmh 30.40 in1029.5 mb 0.00 in0.0 mm 0.00 in0.0 mm 0.50 in12.7 mm
07:15 AM 37.9°F3.3°C 27.6°F-2.4°C 66% 2.7 mph N4.3 kmh N 3.7 mph6.0 kmh 30.40 in1029.5 mb 0.00 in0.0 mm 0.00 in0.0 mm 0.50 in12.7 mm
07:16 AM 37.9°F3.3°C 27.6°F-2.4°C 66% 2.7 mph N4.3 kmh N 3.7 mph6.0 kmh 30.40 in1029.5 mb 0.00 in0.0 mm 0.00 in0.0 mm 0.50 in12.7 mm
07:17 AM 37.9°F3.3°C 27.6°F-2.4°C 66% 2.7 mph N4.3 kmh N 3.7 mph6.0 kmh 30.40 in1029.5 mb 0.00 in0.0 mm 0.00 in0.0 mm 0.50 in12.7 mm
07:18 AM 37.9°F3.3°C 27.6°F-2.4°C 66% 4.7 mph N7.6 kmh N 4.7 mph7.6 kmh 30.40 in1029.5 mb 0.00 in0.0 mm 0.00 in0.0 mm 0.50 in12.7 mm
07:19 AM 37.8°F3.2°C 27.8°F-2.3°C 67% 5.8 mph NNW9.3 kmh NNW 6.8 mph10.9 kmh 30.40 in1029.5 mb 0.00 in0.0 mm 0.00 in0.0 mm 0.50 in12.7 mm
07:20 AM 37.8°F3.2°C 28.2°F-2.1°C 68% 2.2 mph N3.5 kmh N 6.8 mph10.9 kmh 30.40 in1029.5 mb 0.00 in0.0 mm 0.00 in0.0 mm 0.50 in12.7 mm
07:21 AM 37.8°F3.2°C 28.2°F-2.1°C 68% 4.7 mph NNW7.6 kmh NNW 6.8 mph10.9 kmh 30.40 in1029.5 mb 0.00 in0.0 mm 0.00 in0.0 mm 0.50 in12.7 mm
07:22 AM 37.8°F3.2°C 28.9°F-1.7°C 70% 2.2 mph N3.5 kmh N 6.8 mph10.9 kmh 30.40 in1029.5 mb 0.00 in0.0 mm 0.00 in0.0 mm 0.50 in12.7 mm
07:23 AM 37.8°F3.2°C 29.2°F-1.6°C 71% 3.7 mph N6.0 kmh N 6.8 mph10.9 kmh 30.40 in1029.5 mb 0.00 in0.0 mm 0.00 in0.0 mm 0.50 in12.7 mm
07:24 AM 37.4°F3.0°C 29.6°F-1.3°C 73% 2.7 mph ENE4.3 kmh ENE 6.8 mph10.9 kmh 30.40 in1029.5 mb 0.00 in0.0 mm 0.00 in0.0 mm 0.50 in12.7 mm
07:25 AM 37.2°F2.9°C 30.0°F-1.1°C 75% 7.3 mph ENE11.7 kmh ENE 7.3 mph11.7 kmh 30.40 in1029.5 mb 0.00 in0.0 mm 0.00 in0.0 mm 0.50 in12.7 mm
07:26 AM 37.2°F2.9°C 30.4°F-0.9°C 76% 4.7 mph W7.6 kmh W 7.3 mph11.7 kmh 30.41 in1029.8 mb 0.00 in0.0 mm 0.00 in0.0 mm 0.50 in12.7 mm
07:27 AM 37.0°F2.8°C 30.8°F-0.7°C 78% Calm Calm 7.3 mph11.7 kmh 30.41 in1029.8 mb 0.00 in0.0 mm 0.00 in0.0 mm 0.50 in12.7 mm
07:28 AM 36.9°F2.7°C 31.0°F-0.6°C 79% 2.2 mph N3.5 kmh N 7.3 mph11.7 kmh 30.41 in1029.8 mb 0.00 in0.0 mm 0.00 in0.0 mm 0.50 in12.7 mm
07:29 AM 36.5°F2.5°C 30.9°F-0.6°C 80% 4.2 mph NW6.8 kmh NW 7.3 mph11.7 kmh 30.41 in1029.8 mb 0.00 in0.0 mm 0.00 in0.0 mm 0.50 in12.7 mm
07:30 AM 36.3°F2.4°C 31.4°F-0.3°C 82% 2.7 mph N4.3 kmh N 7.3 mph11.7 kmh 30.41 in1029.8 mb 0.00 in0.0 mm 0.00 in0.0 mm 0.50 in12.7 mm
07:31 AM 36.3°F2.4°C 31.4°F-0.3°C 82% Calm Calm 7.3 mph11.7 kmh 30.41 in1029.8 mb 0.00 in0.0 mm 0.00 in0.0 mm 0.50 in12.7 mm
07:32 AM 36.3°F2.4°C 31.4°F-0.3°C 82% 1.1 mph N1.8 kmh N 7.3 mph11.7 kmh 30.41 in1029.8 mb 0.00 in0.0 mm 0.00 in0.0 mm 0.50 in12.7 mm
07:33 AM 36.3°F2.4°C 31.7°F-0.2°C 83% 1.7 mph N2.7 kmh N 7.3 mph11.7 kmh 30.41 in1029.8 mb 0.00 in0.0 mm 0.00 in0.0 mm 0.50 in12.7 mm
07:34 AM 36.3°F2.4°C 31.7°F-0.2°C 83% Calm Calm 7.3 mph11.7 kmh 30.41 in1029.8 mb 0.00 in0.0 mm 0.00 in0.0 mm 0.50 in12.7 mm
07:35 AM 36.1°F2.3°C 31.8°F-0.1°C 84% Calm Calm 7.3 mph11.7 kmh 30.41 in1029.8 mb 0.00 in0.0 mm 0.00 in0.0 mm 0.50 in12.7 mm
07:36 AM 36.1°F2.3°C 31.8°F-0.1°C 84% Calm Calm 4.7 mph7.6 kmh 30.41 in1029.8 mb 0.00 in0.0 mm 0.00 in0.0 mm 0.50 in12.7 mm
07:37 AM 36.1°F2.3°C 31.8°F-0.1°C 84% Calm Calm 4.2 mph6.8 kmh 30.41 in1029.8 mb 0.00 in0.0 mm 0.00 in0.0 mm 0.50 in12.7 mm
07:38 AM 36.1°F2.3°C 32.1°F0.1°C 85% Calm Calm 4.2 mph6.8 kmh 30.41 in1029.8 mb 0.00 in0.0 mm 0.00 in0.0 mm 0.50 in12.7 mm
07:39 AM 36.0°F2.2°C 31.9°F-0.1°C 85% Calm Calm 4.2 mph6.8 kmh 30.41 in1029.8 mb 0.00 in0.0 mm 0.00 in0.0 mm 0.50 in12.7 mm
07:40 AM 35.8°F2.1°C 32.0°F0.0°C 86% Calm Calm 2.7 mph4.3 kmh 30.41 in1029.8 mb 0.00 in0.0 mm 0.00 in0.0 mm 0.50 in12.7 mm
07:41 AM 35.6°F2.0°C 31.8°F-0.1°C 86% Calm Calm 1.7 mph2.7 kmh 30.41 in1029.8 mb 0.00 in0.0 mm 0.00 in0.0 mm 0.50 in12.7 mm
07:42 AM 35.6°F2.0°C 32.1°F0.1°C 87% Calm Calm 1.7 mph2.7 kmh 30.41 in1029.8 mb 0.00 in0.0 mm 0.00 in0.0 mm 0.50 in12.7 mm
07:43 AM 35.6°F2.0°C 32.1°F0.1°C 87% Calm Calm 1.7 mph2.7 kmh 30.41 in1029.8 mb 0.00 in0.0 mm 0.00 in0.0 mm 0.50 in12.7 mm
07:44 AM 35.4°F1.9°C 32.2°F0.1°C 88% Calm Calm 1.1 mph1.8 kmh 30.41 in1029.8 mb 0.00 in0.0 mm 0.00 in0.0 mm 0.50 in12.7 mm
07:45 AM 35.4°F1.9°C 32.2°F0.1°C 88% Calm Calm -- 30.41 in1029.8 mb 0.00 in0.0 mm 0.00 in0.0 mm 0.50 in12.7 mm
07:46 AM 35.4°F1.9°C 32.2°F0.1°C 88% Calm Calm -- 30.41 in1029.8 mb 0.00 in0.0 mm 0.00 in0.0 mm 0.50 in12.7 mm
07:47 AM 35.4°F1.9°C 32.2°F0.1°C 88% Calm Calm -- 30.41 in1029.8 mb 0.00 in0.0 mm 0.00 in0.0 mm 0.50 in12.7 mm
07:48 AM 35.4°F1.9°C 32.2°F0.1°C 88% Calm Calm -- 30.41 in1029.8 mb 0.00 in0.0 mm 0.00 in0.0 mm 0.50 in12.7 mm
07:49 AM 35.4°F1.9°C 32.2°F0.1°C 88% Calm Calm -- 30.41 in1029.8 mb 0.00 in0.0 mm 0.00 in0.0 mm 0.50 in12.7 mm
07:50 AM 35.2°F1.8°C 32.3°F0.2°C 89% Calm Calm -- 30.41 in1029.8 mb 0.00 in0.0 mm 0.00 in0.0 mm 0.50 in12.7 mm
07:51 AM 35.2°F1.8°C 32.3°F0.2°C 89% Calm Calm -- 30.41 in1029.8 mb 0.00 in0.0 mm 0.00 in0.0 mm 0.50 in12.7 mm
07:52 AM 35.2°F1.8°C 32.3°F0.2°C 89% Calm Calm -- 30.41 in1029.8 mb 0.00 in0.0 mm 0.00 in0.0 mm 0.50 in12.7 mm
07:53 AM 35.1°F1.7°C 32.4°F0.2°C 90% Calm Calm -- 30.41 in1029.8 mb 0.00 in0.0 mm 0.00 in0.0 mm 0.50 in12.7 mm
07:54 AM 35.1°F1.7°C 32.4°F0.2°C 90% Calm Calm -- 30.41 in1029.8 mb 0.00 in0.0 mm 0.00 in0.0 mm 0.50 in12.7 mm
07:55 AM 34.9°F1.6°C 32.3°F0.2°C 90% Calm Calm -- 30.41 in1029.8 mb 0.00 in0.0 mm 0.00 in0.0 mm 0.50 in12.7 mm
07:56 AM 34.9°F1.6°C 32.5°F0.3°C 91% Calm Calm -- 30.41 in1029.8 mb 0.00 in0.0 mm 0.00 in0.0 mm 0.50 in12.7 mm
07:57 AM 34.9°F1.6°C 32.5°F0.3°C 91% Calm Calm -- 30.41 in1029.8 mb 0.00 in0.0 mm 0.00 in0.0 mm 0.50 in12.7 mm
07:58 AM 34.9°F1.6°C 32.5°F0.3°C 91% Calm Calm -- 30.41 in1029.8 mb 0.00 in0.0 mm 0.00 in0.0 mm 0.50 in12.7 mm
07:59 AM 34.7°F1.5°C 32.3°F0.2°C 91% Calm Calm -- 30.41 in1029.8 mb 0.00 in0.0 mm 0.00 in0.0 mm 0.50 in12.7 mm
08:00 AM 34.7°F1.5°C 32.6°F0.3°C 92% Calm Calm -- 30.41 in1029.8 mb 0.00 in0.0 mm 0.00 in0.0 mm 0.50 in12.7 mm
08:01 AM 34.7°F1.5°C 32.6°F0.3°C 92% Calm Calm -- 30.41 in1029.8 mb 0.00 in0.0 mm 0.00 in0.0 mm 0.50 in12.7 mm
08:02 AM 34.5°F1.4°C 32.4°F0.2°C 92% Calm Calm -- 30.42 in1030.1 mb 0.00 in0.0 mm 0.00 in0.0 mm 0.50 in12.7 mm
08:03 AM 34.5°F1.4°C 32.4°F0.2°C 92% Calm Calm -- 30.42 in1030.1 mb 0.00 in0.0 mm 0.00 in0.0 mm 0.50 in12.7 mm
08:04 AM 34.5°F1.4°C 32.7°F0.4°C 93% Calm Calm -- 30.42 in1030.1 mb 0.00 in0.0 mm 0.00 in0.0 mm 0.50 in12.7 mm
08:05 AM 34.3°F1.3°C 32.5°F0.3°C 93% Calm Calm -- 30.42 in1030.1 mb 0.00 in0.0 mm 0.00 in0.0 mm 0.50 in12.7 mm
08:06 AM 34.3°F1.3°C 32.8°F0.4°C 94% Calm Calm -- 30.42 in1030.1 mb 0.00 in0.0 mm 0.00 in0.0 mm 0.50 in12.7 mm
08:07 AM 34.3°F1.3°C 32.8°F0.4°C 94% Calm Calm -- 30.42 in1030.1 mb 0.00 in0.0 mm 0.00 in0.0 mm 0.50 in12.7 mm
08:08 AM 34.2°F1.2°C 32.6°F0.3°C 94% Calm Calm -- 30.42 in1030.1 mb 0.00 in0.0 mm 0.00 in0.0 mm 0.50 in12.7 mm
08:09 AM 34.2°F1.2°C 32.6°F0.3°C 94% Calm Calm -- 30.42 in1030.1 mb 0.00 in0.0 mm 0.00 in0.0 mm 0.50 in12.7 mm
08:10 AM 34.0°F1.1°C 32.4°F0.2°C 94% Calm Calm -- 30.42 in1030.1 mb 0.00 in0.0 mm 0.00 in0.0 mm 0.50 in12.7 mm
08:11 AM 34.0°F1.1°C 32.7°F0.4°C 95% Calm Calm -- 30.42 in1030.1 mb 0.00 in0.0 mm 0.00 in0.0 mm 0.50 in12.7 mm
08:12 AM 34.0°F1.1°C 32.7°F0.4°C 95% Calm Calm -- 30.42 in1030.1 mb 0.00 in0.0 mm 0.00 in0.0 mm 0.50 in12.7 mm
08:13 AM 34.0°F1.1°C 32.7°F0.4°C 95% Calm Calm -- 30.42 in1030.1 mb 0.00 in0.0 mm 0.00 in0.0 mm 0.50 in12.7 mm
08:14 AM 34.0°F1.1°C 32.7°F0.4°C 95% Calm Calm -- 30.42 in1030.1 mb 0.00 in0.0 mm 0.00 in0.0 mm 0.50 in12.7 mm
08:15 AM 34.0°F1.1°C 32.7°F0.4°C 95% Calm Calm -- 30.42 in1030.1 mb 0.00 in0.0 mm 0.00 in0.0 mm 0.50 in12.7 mm
08:16 AM 33.8°F1.0°C 32.5°F0.3°C 95% Calm Calm -- 30.42 in1030.1 mb 0.00 in0.0 mm 0.00 in0.0 mm 0.50 in12.7 mm
08:17 AM 33.8°F1.0°C 32.8°F0.4°C 96% Calm Calm -- 30.42 in1030.1 mb 0.00 in0.0 mm 0.00 in0.0 mm 0.50 in12.7 mm
08:18 AM 33.8°F1.0°C 32.8°F0.4°C 96% Calm Calm -- 30.42 in1030.1 mb 0.00 in0.0 mm 0.00 in0.0 mm 0.50 in12.7 mm
08:19 AM 33.6°F0.9°C 32.6°F0.3°C 96% Calm Calm -- 30.42 in1030.1 mb 0.00 in0.0 mm 0.00 in0.0 mm 0.50 in12.7 mm
08:20 AM 33.6°F0.9°C 32.6°F0.3°C 96% Calm Calm -- 30.42 in1030.1 mb 0.00 in0.0 mm 0.00 in0.0 mm 0.50 in12.7 mm
08:21 AM 33.6°F0.9°C 32.6°F0.3°C 96% Calm Calm -- 30.42 in1030.1 mb 0.00 in0.0 mm 0.00 in0.0 mm 0.50 in12.7 mm
08:22 AM 33.6°F0.9°C 32.9°F0.5°C 97% Calm Calm -- 30.42 in1030.1 mb 0.00 in0.0 mm 0.00 in0.0 mm 0.50 in12.7 mm
08:23 AM 33.6°F0.9°C 32.9°F0.5°C 97% Calm Calm -- 30.42 in1030.1 mb 0.00 in0.0 mm 0.00 in0.0 mm 0.50 in12.7 mm
08:24 AM 33.6°F0.9°C 32.9°F0.5°C 97% Calm Calm -- 30.42 in1030.1 mb 0.00 in0.0 mm 0.00 in0.0 mm 0.50 in12.7 mm
08:25 AM 33.4°F0.8°C 32.7°F0.4°C 97% Calm Calm -- 30.42 in1030.1 mb 0.00 in0.0 mm 0.00 in0.0 mm 0.50 in12.7 mm
08:26 AM 33.4°F0.8°C 32.7°F0.4°C 97% Calm Calm -- 30.41 in1029.8 mb 0.00 in0.0 mm 0.00 in0.0 mm 0.50 in12.7 mm
08:27 AM 33.4°F0.8°C 32.9°F0.5°C 98% 1.7 mph N2.7 kmh N 2.7 mph4.3 kmh 30.41 in1029.8 mb 0.00 in0.0 mm 0.00 in0.0 mm 0.50 in12.7 mm
08:28 AM 33.4°F0.8°C 32.9°F0.5°C 98% Calm Calm 2.7 mph4.3 kmh 30.41 in1029.8 mb 0.00 in0.0 mm 0.00 in0.0 mm 0.50 in12.7 mm
08:29 AM 33.4°F0.8°C 32.9°F0.5°C 98% 1.7 mph N2.7 kmh N 2.7 mph4.3 kmh 30.41 in1029.8 mb 0.00 in0.0 mm 0.00 in0.0 mm 0.50 in12.7 mm
08:30 AM 33.3°F0.7°C 32.8°F0.4°C 98% 2.2 mph N3.5 kmh N 2.7 mph4.3 kmh 30.41 in1029.8 mb 0.00 in0.0 mm 0.00 in0.0 mm 0.50 in12.7 mm
08:31 AM 33.3°F0.7°C 32.8°F0.4°C 98% 1.1 mph N1.8 kmh N 2.7 mph4.3 kmh 30.41 in1029.8 mb 0.00 in0.0 mm 0.00 in0.0 mm 0.50 in12.7 mm
08:32 AM 33.3°F0.7°C 32.8°F0.4°C 98% Calm Calm 2.7 mph4.3 kmh 30.41 in1029.8 mb 0.00 in0.0 mm 0.00 in0.0 mm 0.50 in12.7 mm
08:33 AM 33.3°F0.7°C 32.8°F0.4°C 98% Calm Calm 2.7 mph4.3 kmh 30.41 in1029.8 mb 0.00 in0.0 mm 0.00 in0.0 mm 0.50 in12.7 mm
08:34 AM 33.3°F0.7°C 33.0°F0.6°C 99% Calm Calm 2.7 mph4.3 kmh 30.41 in1029.8 mb 0.00 in0.0 mm 0.00 in0.0 mm 0.50 in12.7 mm
08:35 AM 33.3°F0.7°C 33.0°F0.6°C 99% Calm Calm 2.7 mph4.3 kmh 30.41 in1029.8 mb 0.00 in0.0 mm 0.00 in0.0 mm 0.50 in12.7 mm
08:36 AM 33.3°F0.7°C 33.0°F0.6°C 99% 2.2 mph N3.5 kmh N 2.7 mph4.3 kmh 30.41 in1029.8 mb 0.00 in0.0 mm 0.00 in0.0 mm 0.50 in12.7 mm
08:37 AM 33.3°F0.7°C 33.0°F0.6°C 99% Calm Calm 2.2 mph3.5 kmh 30.41 in1029.8 mb 0.00 in0.0 mm 0.00 in0.0 mm 0.50 in12.7 mm
08:38 AM 33.3°F0.7°C 33.0°F0.6°C 99% Calm Calm 2.2 mph3.5 kmh 30.42 in1030.1 mb 0.00 in0.0 mm 0.00 in0.0 mm 0.50 in12.7 mm
08:39 AM 33.3°F0.7°C 33.0°F0.6°C 99% Calm Calm 2.2 mph3.5 kmh 30.42 in1030.1 mb 0.00 in0.0 mm 0.00 in0.0 mm 0.50 in12.7 mm
08:40 AM 33.1°F0.6°C 32.8°F0.4°C 99% Calm Calm 2.2 mph3.5 kmh 30.42 in1030.1 mb 0.00 in0.0 mm 0.00 in0.0 mm 0.50 in12.7 mm
08:41 AM 33.1°F0.6°C 32.8°F0.4°C 99% Calm Calm 2.2 mph3.5 kmh 30.42 in1030.1 mb 0.00 in0.0 mm 0.00 in0.0 mm 0.50 in12.7 mm
08:42 AM 33.1°F0.6°C 32.8°F0.4°C 99% Calm Calm 2.2 mph3.5 kmh 30.42 in1030.1 mb 0.00 in0.0 mm 0.00 in0.0 mm 0.50 in12.7 mm
08:43 AM 33.1°F0.6°C 32.8°F0.4°C 99% Calm Calm 2.2 mph3.5 kmh 30.42 in1030.1 mb 0.00 in0.0 mm 0.00 in0.0 mm 0.50 in12.7 mm
08:44 AM 33.1°F0.6°C 32.8°F0.4°C 99% Calm Calm 2.2 mph3.5 kmh 30.42 in1030.1 mb 0.00 in0.0 mm 0.00 in0.0 mm 0.50 in12.7 mm
08:45 AM 33.1°F0.6°C 32.8°F0.4°C 99% 4.2 mph N6.8 kmh N 4.2 mph6.8 kmh 30.42 in1030.1 mb 0.00 in0.0 mm 0.00 in0.0 mm 0.50 in12.7 mm
08:46 AM 32.9°F0.5°C 32.7°F0.4°C 99% 2.2 mph N3.5 kmh N 4.2 mph6.8 kmh 30.42 in1030.1 mb 0.00 in0.0 mm 0.00 in0.0 mm 0.50 in12.7 mm
08:47 AM 32.9°F0.5°C 32.7°F0.4°C 99% Calm Calm 4.2 mph6.8 kmh 30.42 in1030.1 mb 0.00 in0.0 mm 0.00 in0.0 mm 0.50 in12.7 mm
08:48 AM 32.9°F0.5°C 32.7°F0.4°C 99% Calm Calm 4.2 mph6.8 kmh 30.42 in1030.1 mb 0.00 in0.0 mm 0.00 in0.0 mm 0.50 in12.7 mm
08:49 AM 32.9°F0.5°C 32.7°F0.4°C 99% Calm Calm 4.2 mph6.8 kmh 30.42 in1030.1 mb 0.00 in0.0 mm 0.00 in0.0 mm 0.50 in12.7 mm
08:50 AM 32.9°F0.5°C 32.7°F0.4°C 99% 1.1 mph N1.8 kmh N 4.2 mph6.8 kmh 30.42 in1030.1 mb 0.00 in0.0 mm 0.00 in0.0 mm 0.50 in12.7 mm
08:51 AM 32.9°F0.5°C 32.7°F0.4°C 99% 3.2 mph NW5.1 kmh NW 4.2 mph6.8 kmh 30.42 in1030.1 mb 0.00 in0.0 mm 0.00 in0.0 mm 0.50 in12.7 mm
08:52 AM 32.9°F0.5°C 32.7°F0.4°C 99% 1.1 mph N1.8 kmh N 4.2 mph6.8 kmh 30.42 in1030.1 mb 0.00 in0.0 mm 0.00 in0.0 mm 0.50 in12.7 mm
08:53 AM 32.9°F0.5°C 32.7°F0.4°C 99% Calm Calm 4.2 mph6.8 kmh 30.42 in1030.1 mb 0.00 in0.0 mm 0.00 in0.0 mm 0.50 in12.7 mm
08:54 AM 32.9°F0.5°C 32.7°F0.4°C 99% 2.2 mph NNW3.5 kmh NNW 4.2 mph6.8 kmh 30.42 in1030.1 mb 0.00 in0.0 mm 0.00 in0.0 mm 0.50 in12.7 mm
08:55 AM 32.7°F0.4°C 32.5°F0.3°C 99% Calm Calm 4.2 mph6.8 kmh 30.42 in1030.1 mb 0.00 in0.0 mm 0.00 in0.0 mm 0.50 in12.7 mm
08:56 AM 32.7°F0.4°C 32.5°F0.3°C 99% 1.1 mph N1.8 kmh N 4.2 mph6.8 kmh 30.42 in1030.1 mb 0.00 in0.0 mm 0.00 in0.0 mm 0.50 in12.7 mm
08:57 AM 32.7°F0.4°C 32.5°F0.3°C 99% 1.1 mph N1.8 kmh N 4.2 mph6.8 kmh 30.42 in1030.1 mb 0.00 in0.0 mm 0.00 in0.0 mm 0.50 in12.7 mm
08:58 AM 32.7°F0.4°C 32.5°F0.3°C 99% Calm Calm 4.2 mph6.8 kmh 30.42 in1030.1 mb 0.00 in0.0 mm 0.00 in0.0 mm 0.50 in12.7 mm
08:59 AM 32.7°F0.4°C 32.5°F0.3°C 99% Calm Calm 4.2 mph6.8 kmh 30.42 in1030.1 mb 0.00 in0.0 mm 0.00 in0.0 mm 0.50 in12.7 mm
09:00 AM 32.7°F0.4°C 32.5°F0.3°C 99% Calm Calm 4.2 mph6.8 kmh 30.42 in1030.1 mb 0.00 in0.0 mm 0.00 in0.0 mm 0.50 in12.7 mm
09:01 AM 32.7°F0.4°C 32.5°F0.3°C 99% Calm Calm 4.2 mph6.8 kmh 30.42 in1030.1 mb 0.00 in0.0 mm 0.00 in0.0 mm 0.50 in12.7 mm
09:02 AM 32.7°F0.4°C 32.5°F0.3°C 99% Calm Calm 4.2 mph6.8 kmh 30.42 in1030.1 mb 0.00 in0.0 mm 0.00 in0.0 mm 0.50 in12.7 mm
09:03 AM 32.7°F0.4°C 32.5°F0.3°C 99% Calm Calm 4.2 mph6.8 kmh 30.42 in1030.1 mb 0.00 in0.0 mm 0.00 in0.0 mm 0.50 in12.7 mm
09:04 AM 32.7°F0.4°C 32.5°F0.3°C 99% Calm Calm 2.7 mph4.3 kmh 30.42 in1030.1 mb 0.00 in0.0 mm 0.00 in0.0 mm 0.50 in12.7 mm
09:05 AM 32.7°F0.4°C 32.5°F0.3°C 99% Calm Calm 2.7 mph4.3 kmh 30.42 in1030.1 mb 0.00 in0.0 mm 0.00 in0.0 mm 0.50 in12.7 mm
09:06 AM 32.7°F0.4°C 32.5°F0.3°C 99% 2.7 mph N4.3 kmh N 2.7 mph4.3 kmh 30.42 in1030.1 mb 0.00 in0.0 mm 0.00 in0.0 mm 0.50 in12.7 mm
09:07 AM 32.7°F0.4°C 32.5°F0.3°C 99% 3.2 mph N5.1 kmh N 3.2 mph5.1 kmh 30.42 in1030.1 mb 0.00 in0.0 mm 0.00 in0.0 mm 0.50 in12.7 mm
09:08 AM 32.7°F0.4°C 32.5°F0.3°C 99% 1.7 mph NW2.7 kmh NW 3.2 mph5.1 kmh 30.42 in1030.1 mb 0.00 in0.0 mm 0.00 in0.0 mm 0.50 in12.7 mm
09:10 AM 32.7°F0.4°C 32.5°F0.3°C 99% 2.2 mph N3.5 kmh N 3.2 mph5.1 kmh 30.42 in1030.1 mb 0.00 in0.0 mm 0.00 in0.0 mm 0.50 in12.7 mm
09:11 AM 32.7°F0.4°C 32.5°F0.3°C 99% Calm Calm 3.2 mph5.1 kmh 30.42 in1030.1 mb 0.00 in0.0 mm 0.00 in0.0 mm 0.50 in12.7 mm
09:12 AM 32.7°F0.4°C 32.5°F0.3°C 99% Calm Calm 3.2 mph5.1 kmh 30.42 in1030.1 mb 0.00 in0.0 mm 0.00 in0.0 mm 0.50 in12.7 mm
09:13 AM 32.7°F0.4°C 32.5°F0.3°C 99% Calm Calm 3.2 mph5.1 kmh 30.42 in1030.1 mb 0.00 in0.0 mm 0.00 in0.0 mm 0.50 in12.7 mm
09:14 AM 32.7°F0.4°C 32.5°F0.3°C 99% Calm Calm 3.2 mph5.1 kmh 30.42 in1030.1 mb 0.00 in0.0 mm 0.00 in0.0 mm 0.50 in12.7 mm
09:15 AM 32.7°F0.4°C 32.5°F0.3°C 99% Calm Calm 3.2 mph5.1 kmh 30.42 in1030.1 mb 0.00 in0.0 mm 0.00 in0.0 mm 0.50 in12.7 mm
09:16 AM 32.7°F0.4°C 32.5°F0.3°C 99% Calm Calm 3.2 mph5.1 kmh 30.42 in1030.1 mb 0.00 in0.0 mm 0.00 in0.0 mm 0.50 in12.7 mm
09:17 AM 32.7°F0.4°C 32.5°F0.3°C 99% Calm Calm 3.2 mph5.1 kmh 30.42 in1030.1 mb 0.00 in0.0 mm 0.00 in0.0 mm 0.50 in12.7 mm
09:18 AM 32.7°F0.4°C 32.5°F0.3°C 99% Calm Calm 2.7 mph4.3 kmh 30.42 in1030.1 mb 0.00 in0.0 mm 0.00 in0.0 mm 0.50 in12.7 mm
09:19 AM 32.7°F0.4°C 32.5°F0.3°C 99% Calm Calm 2.7 mph4.3 kmh 30.42 in1030.1 mb 0.00 in0.0 mm 0.00 in0.0 mm 0.50 in12.7 mm
09:20 AM 32.7°F0.4°C 32.5°F0.3°C 99% Calm Calm 2.7 mph4.3 kmh 30.42 in1030.1 mb 0.00 in0.0 mm 0.00 in0.0 mm 0.50 in12.7 mm
09:21 AM 32.7°F0.4°C 32.5°F0.3°C 99% Calm Calm -- 30.42 in1030.1 mb 0.00 in0.0 mm 0.00 in0.0 mm 0.50 in12.7 mm
09:22 AM 32.7°F0.4°C 32.5°F0.3°C 99% Calm Calm -- 30.42 in1030.1 mb 0.00 in0.0 mm 0.00 in0.0 mm 0.50 in12.7 mm
09:23 AM 32.7°F0.4°C 32.5°F0.3°C 99% Calm Calm -- 30.42 in1030.1 mb 0.00 in0.0 mm 0.00 in0.0 mm 0.50 in12.7 mm
09:24 AM 32.7°F0.4°C 32.5°F0.3°C 99% Calm Calm -- 30.42 in1030.1 mb 0.00 in0.0 mm 0.00 in0.0 mm 0.50 in12.7 mm
09:25 AM 32.7°F0.4°C 32.5°F0.3°C 99% 1.1 mph N1.8 kmh N 1.1 mph1.8 kmh 30.42 in1030.1 mb 0.00 in0.0 mm 0.00 in0.0 mm 0.50 in12.7 mm
09:26 AM 32.7°F0.4°C 32.5°F0.3°C 99% 1.7 mph NNE2.7 kmh NNE 2.7 mph4.3 kmh 30.42 in1030.1 mb 0.00 in0.0 mm 0.00 in0.0 mm 0.50 in12.7 mm
09:27 AM 32.7°F0.4°C 32.5°F0.3°C 99% Calm Calm 2.7 mph4.3 kmh 30.42 in1030.1 mb 0.00 in0.0 mm 0.00 in0.0 mm 0.50 in12.7 mm
09:28 AM 32.7°F0.4°C 32.5°F0.3°C 99% Calm Calm 2.7 mph4.3 kmh 30.42 in1030.1 mb 0.00 in0.0 mm 0.00 in0.0 mm 0.50 in12.7 mm
09:29 AM 32.7°F0.4°C 32.5°F0.3°C 99% Calm Calm 2.7 mph4.3 kmh 30.42 in1030.1 mb 0.00 in0.0 mm 0.00 in0.0 mm 0.50 in12.7 mm
09:30 AM 32.7°F0.4°C 32.5°F0.3°C 99% Calm Calm 2.7 mph4.3 kmh 30.42 in1030.1 mb 0.00 in0.0 mm 0.00 in0.0 mm 0.50 in12.7 mm
09:31 AM 32.7°F0.4°C 32.5°F0.3°C 99% Calm Calm 2.7 mph4.3 kmh 30.42 in1030.1 mb 0.00 in0.0 mm 0.00 in0.0 mm 0.50 in12.7 mm
09:32 AM 32.7°F0.4°C 32.5°F0.3°C 99% Calm Calm 2.7 mph4.3 kmh 30.42 in1030.1 mb 0.00 in0.0 mm 0.00 in0.0 mm 0.50 in12.7 mm
09:33 AM 32.7°F0.4°C 32.5°F0.3°C 99% 4.2 mph N6.8 kmh N 4.2 mph6.8 kmh 30.42 in1030.1 mb 0.00 in0.0 mm 0.00 in0.0 mm 0.50 in12.7 mm
09:34 AM 32.7°F0.4°C 32.5°F0.3°C 99% 1.7 mph N2.7 kmh N 4.2 mph6.8 kmh 30.42 in1030.1 mb 0.00 in0.0 mm 0.00 in0.0 mm 0.50 in12.7 mm
09:35 AM 32.7°F0.4°C 32.5°F0.3°C 99% 2.7 mph N4.3 kmh N 4.2 mph6.8 kmh 30.42 in1030.1 mb 0.00 in0.0 mm 0.00 in0.0 mm 0.50 in12.7 mm
09:36 AM 32.7°F0.4°C 32.5°F0.3°C 99% 1.1 mph N1.8 kmh N 4.2 mph6.8 kmh 30.42 in1030.1 mb 0.00 in0.0 mm 0.00 in0.0 mm 0.50 in12.7 mm
09:37 AM 32.7°F0.4°C 32.5°F0.3°C 99% Calm Calm 4.2 mph6.8 kmh 30.42 in1030.1 mb 0.00 in0.0 mm 0.00 in0.0 mm 0.50 in12.7 mm
09:38 AM 32.7°F0.4°C 32.5°F0.3°C 99% Calm Calm 4.2 mph6.8 kmh 30.42 in1030.1 mb 0.00 in0.0 mm 0.00 in0.0 mm 0.50 in12.7 mm
09:39 AM 32.7°F0.4°C 32.5°F0.3°C 99% 1.1 mph N1.8 kmh N 4.2 mph6.8 kmh 30.42 in1030.1 mb 0.00 in0.0 mm 0.00 in0.0 mm 0.50 in12.7 mm
09:40 AM 32.7°F0.4°C 32.5°F0.3°C 99% Calm Calm 4.2 mph6.8 kmh 30.42 in1030.1 mb 0.00 in0.0 mm 0.00 in0.0 mm 0.50 in12.7 mm
09:41 AM 32.7°F0.4°C 32.5°F0.3°C 99% Calm Calm 4.2 mph6.8 kmh 30.42 in1030.1 mb 0.00 in0.0 mm 0.00 in0.0 mm 0.50 in12.7 mm
09:42 AM 32.7°F0.4°C 32.5°F0.3°C 99% 3.2 mph N5.1 kmh N 4.2 mph6.8 kmh 30.42 in1030.1 mb 0.00 in0.0 mm 0.00 in0.0 mm 0.50 in12.7 mm
09:43 AM 32.7°F0.4°C 32.5°F0.3°C 99% Calm Calm 4.2 mph6.8 kmh 30.42 in1030.1 mb 0.00 in0.0 mm 0.00 in0.0 mm 0.50 in12.7 mm
09:44 AM 32.7°F0.4°C 32.5°F0.3°C 99% Calm Calm 4.2 mph6.8 kmh 30.42 in1030.1 mb 0.00 in0.0 mm 0.00 in0.0 mm 0.50 in12.7 mm
09:45 AM 32.9°F0.5°C 32.7°F0.4°C 99% Calm Calm 4.2 mph6.8 kmh 30.42 in1030.1 mb 0.00 in0.0 mm 0.00 in0.0 mm 0.50 in12.7 mm
09:47 AM 32.9°F0.5°C 32.7°F0.4°C 99% Calm Calm 4.2 mph6.8 kmh 30.42 in1030.1 mb 0.00 in0.0 mm 0.00 in0.0 mm 0.50 in12.7 mm
09:48 AM 33.1°F0.6°C 32.8°F0.4°C 99% Calm Calm 4.2 mph6.8 kmh 30.42 in1030.1 mb 0.00 in0.0 mm 0.00 in0.0 mm 0.50 in12.7 mm
09:49 AM 33.1°F0.6°C 32.8°F0.4°C 99% Calm Calm 3.2 mph5.1 kmh 30.42 in1030.1 mb 0.00 in0.0 mm 0.00 in0.0 mm 0.50 in12.7 mm
09:50 AM 33.1°F0.6°C 32.8°F0.4°C 99% Calm Calm 3.2 mph5.1 kmh 30.43 in1030.5 mb 0.00 in0.0 mm 0.00 in0.0 mm 0.50 in12.7 mm
09:51 AM 33.1°F0.6°C 32.8°F0.4°C 99% Calm Calm 3.2 mph5.1 kmh 30.43 in1030.5 mb 0.00 in0.0 mm 0.00 in0.0 mm 0.50 in12.7 mm
09:52 AM 33.1°F0.6°C 32.8°F0.4°C 99% Calm Calm 3.2 mph5.1 kmh 30.43 in1030.5 mb 0.00 in0.0 mm 0.00 in0.0 mm 0.50 in12.7 mm
09:53 AM 33.1°F0.6°C 32.8°F0.4°C 99% Calm Calm -- 30.43 in1030.5 mb 0.00 in0.0 mm 0.00 in0.0 mm 0.50 in12.7 mm
09:54 AM 33.1°F0.6°C 32.8°F0.4°C 99% Calm Calm -- 30.43 in1030.5 mb 0.00 in0.0 mm 0.00 in0.0 mm 0.50 in12.7 mm
09:55 AM 33.1°F0.6°C 32.8°F0.4°C 99% Calm Calm -- 30.43 in1030.5 mb 0.00 in0.0 mm 0.00 in0.0 mm 0.50 in12.7 mm
09:56 AM 33.1°F0.6°C 32.8°F0.4°C 99% Calm Calm -- 30.43 in1030.5 mb 0.00 in0.0 mm 0.00 in0.0 mm 0.50 in12.7 mm
09:57 AM 33.1°F0.6°C 32.8°F0.4°C 99% Calm Calm -- 30.43 in1030.5 mb 0.00 in0.0 mm 0.00 in0.0 mm 0.50 in12.7 mm
09:58 AM 33.1°F0.6°C 32.8°F0.4°C 99% Calm Calm -- 30.43 in1030.5 mb 0.00 in0.0 mm 0.00 in0.0 mm 0.50 in12.7 mm
09:59 AM 33.1°F0.6°C 32.8°F0.4°C 99% Calm Calm -- 30.43 in1030.5 mb 0.00 in0.0 mm 0.00 in0.0 mm 0.50 in12.7 mm
10:00 AM 33.1°F0.6°C 32.8°F0.4°C 99% Calm Calm -- 30.43 in1030.5 mb 0.00 in0.0 mm 0.00 in0.0 mm 0.50 in12.7 mm
10:01 AM 33.1°F0.6°C 32.8°F0.4°C 99% Calm Calm -- 30.43 in1030.5 mb 0.00 in0.0 mm 0.00 in0.0 mm 0.50 in12.7 mm
10:02 AM 33.1°F0.6°C 32.8°F0.4°C 99% Calm Calm -- 30.44 in1030.8 mb 0.00 in0.0 mm 0.00 in0.0 mm 0.50 in12.7 mm
10:03 AM 33.1°F0.6°C 32.8°F0.4°C 99% Calm Calm -- 30.44 in1030.8 mb 0.00 in0.0 mm 0.00 in0.0 mm 0.50 in12.7 mm
10:04 AM 33.1°F0.6°C 32.8°F0.4°C 99% Calm Calm -- 30.44 in1030.8 mb 0.00 in0.0 mm 0.00 in0.0 mm 0.50 in12.7 mm
10:05 AM 33.1°F0.6°C 32.8°F0.4°C 99% Calm Calm -- 30.44 in1030.8 mb 0.00 in0.0 mm 0.00 in0.0 mm 0.50 in12.7 mm
10:06 AM 33.1°F0.6°C 32.8°F0.4°C 99% Calm Calm -- 30.44 in1030.8 mb 0.00 in0.0 mm 0.00 in0.0 mm 0.50 in12.7 mm
10:07 AM 33.1°F0.6°C 32.8°F0.4°C 99% Calm Calm -- 30.44 in1030.8 mb 0.00 in0.0 mm 0.00 in0.0 mm 0.50 in12.7 mm
10:08 AM 33.1°F0.6°C 32.8°F0.4°C 99% Calm Calm -- 30.44 in1030.8 mb 0.00 in0.0 mm 0.00 in0.0 mm 0.50 in12.7 mm
10:09 AM 33.1°F0.6°C 32.8°F0.4°C 99% Calm Calm -- 30.44 in1030.8 mb 0.00 in0.0 mm 0.00 in0.0 mm 0.50 in12.7 mm
10:10 AM 33.1°F0.6°C 32.8°F0.4°C 99% Calm Calm -- 30.44 in1030.8 mb 0.00 in0.0 mm 0.00 in0.0 mm 0.50 in12.7 mm
10:11 AM 33.1°F0.6°C 32.8°F0.4°C 99% Calm Calm -- 30.44 in1030.8 mb 0.00 in0.0 mm 0.00 in0.0 mm 0.50 in12.7 mm
10:12 AM 33.1°F0.6°C 32.8°F0.4°C 99% Calm Calm -- 30.44 in1030.8 mb 0.00 in0.0 mm 0.00 in0.0 mm 0.50 in12.7 mm
10:13 AM 33.1°F0.6°C 32.8°F0.4°C 99% Calm Calm -- 30.44 in1030.8 mb 0.00 in0.0 mm 0.00 in0.0 mm 0.50 in12.7 mm
10:14 AM 33.1°F0.6°C 32.8°F0.4°C 99% Calm Calm -- 30.44 in1030.8 mb 0.00 in0.0 mm 0.00 in0.0 mm 0.50 in12.7 mm
10:15 AM 33.1°F0.6°C 32.8°F0.4°C 99% Calm Calm -- 30.44 in1030.8 mb 0.00 in0.0 mm 0.00 in0.0 mm 0.50 in12.7 mm
10:16 AM 33.1°F0.6°C 32.8°F0.4°C 99% Calm Calm -- 30.44 in1030.8 mb 0.00 in0.0 mm 0.00 in0.0 mm 0.50 in12.7 mm
10:17 AM 33.1°F0.6°C 32.8°F0.4°C 99% 1.7 mph NNW2.7 kmh NNW 2.7 mph4.3 kmh 30.44 in1030.8 mb 0.00 in0.0 mm 0.00 in0.0 mm 0.50 in12.7 mm
10:18 AM 33.1°F0.6°C 32.8°F0.4°C 99% Calm Calm 2.7 mph4.3 kmh 30.44 in1030.8 mb 0.00 in0.0 mm 0.00 in0.0 mm 0.50 in12.7 mm
10:19 AM 33.1°F0.6°C 32.8°F0.4°C 99% Calm Calm 2.7 mph4.3 kmh 30.44 in1030.8 mb 0.00 in0.0 mm 0.00 in0.0 mm 0.50 in12.7 mm
10:20 AM 33.1°F0.6°C 32.8°F0.4°C 99% Calm Calm 3.7 mph6.0 kmh 30.44 in1030.8 mb 0.00 in0.0 mm 0.00 in0.0 mm 0.50 in12.7 mm
10:21 AM 33.1°F0.6°C 32.8°F0.4°C 99% Calm Calm 3.7 mph6.0 kmh 30.44 in1030.8 mb 0.00 in0.0 mm 0.00 in0.0 mm 0.50 in12.7 mm
10:22 AM 33.1°F0.6°C 32.8°F0.4°C 99% Calm Calm 3.7 mph6.0 kmh 30.44 in1030.8 mb 0.00 in0.0 mm 0.00 in0.0 mm 0.50 in12.7 mm
10:23 AM 33.1°F0.6°C 32.8°F0.4°C 99% Calm Calm 3.7 mph6.0 kmh 30.44 in1030.8 mb 0.00 in0.0 mm 0.00 in0.0 mm 0.50 in12.7 mm
10:24 AM 32.9°F0.5°C 32.7°F0.4°C 99% 1.7 mph N2.7 kmh N 3.7 mph6.0 kmh 30.44 in1030.8 mb 0.00 in0.0 mm 0.00 in0.0 mm 0.50 in12.7 mm
10:25 AM 32.9°F0.5°C 32.7°F0.4°C 99% Calm Calm 3.7 mph6.0 kmh 30.44 in1030.8 mb 0.00 in0.0 mm 0.00 in0.0 mm 0.50 in12.7 mm
10:26 AM 32.9°F0.5°C 32.7°F0.4°C 99% 1.1 mph N1.8 kmh N 3.7 mph6.0 kmh 30.43 in1030.5 mb 0.00 in0.0 mm 0.00 in0.0 mm 0.50 in12.7 mm
10:27 AM 32.9°F0.5°C 32.7°F0.4°C 99% Calm Calm 3.7 mph6.0 kmh 30.43 in1030.5 mb 0.00 in0.0 mm 0.00 in0.0 mm 0.50 in12.7 mm
10:28 AM 32.9°F0.5°C 32.7°F0.4°C 99% 1.7 mph N2.7 kmh N 3.7 mph6.0 kmh 30.43 in1030.5 mb 0.00 in0.0 mm 0.00 in0.0 mm 0.50 in12.7 mm
10:29 AM 32.9°F0.5°C 32.7°F0.4°C 99% Calm Calm 3.7 mph6.0 kmh 30.43 in1030.5 mb 0.00 in0.0 mm 0.00 in0.0 mm 0.50 in12.7 mm
10:30 AM 32.9°F0.5°C 32.7°F0.4°C 99% Calm Calm 2.7 mph4.3 kmh 30.43 in1030.5 mb 0.00 in0.0 mm 0.00 in0.0 mm 0.50 in12.7 mm
10:31 AM 33.1°F0.6°C 32.8°F0.4°C 99% Calm Calm 2.7 mph4.3 kmh 30.43 in1030.5 mb 0.00 in0.0 mm 0.00 in0.0 mm 0.50 in12.7 mm
10:32 AM 33.1°F0.6°C 32.8°F0.4°C 99% Calm Calm 2.7 mph4.3 kmh 30.43 in1030.5 mb 0.00 in0.0 mm 0.00 in0.0 mm 0.50 in12.7 mm
10:33 AM 33.1°F0.6°C 32.8°F0.4°C 99% Calm Calm 2.7 mph4.3 kmh 30.43 in1030.5 mb 0.00 in0.0 mm 0.00 in0.0 mm 0.50 in12.7 mm
10:34 AM 33.1°F0.6°C 32.8°F0.4°C 99% 2.2 mph N3.5 kmh N 2.2 mph3.5 kmh 30.43 in1030.5 mb 0.00 in0.0 mm 0.00 in0.0 mm 0.50 in12.7 mm
10:35 AM 33.1°F0.6°C 32.8°F0.4°C 99% Calm Calm 2.2 mph3.5 kmh 30.43 in1030.5 mb 0.00 in0.0 mm 0.00 in0.0 mm 0.50 in12.7 mm
10:36 AM 33.1°F0.6°C 32.8°F0.4°C 99% Calm Calm 2.2 mph3.5 kmh 30.43 in1030.5 mb 0.00 in0.0 mm 0.00 in0.0 mm 0.50 in12.7 mm
10:37 AM 33.1°F0.6°C 32.8°F0.4°C 99% Calm Calm 2.2 mph3.5 kmh 30.43 in1030.5 mb 0.00 in0.0 mm 0.00 in0.0 mm 0.50 in12.7 mm
10:38 AM 33.1°F0.6°C 32.8°F0.4°C 99% Calm Calm 2.2 mph3.5 kmh 30.44 in1030.8 mb 0.00 in0.0 mm 0.00 in0.0 mm 0.50 in12.7 mm
10:39 AM 33.1°F0.6°C 32.8°F0.4°C 99% Calm Calm 2.2 mph3.5 kmh 30.44 in1030.8 mb 0.00 in0.0 mm 0.00 in0.0 mm 0.50 in12.7 mm
10:40 AM 33.1°F0.6°C 32.8°F0.4°C 99% Calm Calm 2.2 mph3.5 kmh 30.44 in1030.8 mb 0.00 in0.0 mm 0.00 in0.0 mm 0.50 in12.7 mm
10:42 AM 33.1°F0.6°C 32.8°F0.4°C 99% Calm Calm 2.2 mph3.5 kmh 30.44 in1030.8 mb 0.00 in0.0 mm 0.00 in0.0 mm 0.50 in12.7 mm
10:43 AM 33.1°F0.6°C 32.8°F0.4°C 99% Calm Calm 2.2 mph3.5 kmh 30.44 in1030.8 mb 0.00 in0.0 mm 0.00 in0.0 mm 0.50 in12.7 mm
10:44 AM 33.1°F0.6°C 32.8°F0.4°C 99% Calm Calm 2.2 mph3.5 kmh 30.44 in1030.8 mb 0.00 in0.0 mm 0.00 in0.0 mm 0.50 in12.7 mm
10:45 AM 33.1°F0.6°C 32.8°F0.4°C 99% Calm Calm -- 30.44 in1030.8 mb 0.00 in0.0 mm 0.00 in0.0 mm 0.50 in12.7 mm
10:46 AM 33.1°F0.6°C 32.8°F0.4°C 99% Calm Calm -- 30.44 in1030.8 mb 0.00 in0.0 mm 0.00 in0.0 mm 0.50 in12.7 mm
10:47 AM 33.1°F0.6°C 32.8°F0.4°C 99% Calm Calm -- 30.44 in1030.8 mb 0.00 in0.0 mm 0.00 in0.0 mm 0.50 in12.7 mm
10:48 AM 33.1°F0.6°C 32.8°F0.4°C 99% Calm Calm -- 30.44 in1030.8 mb 0.00 in0.0 mm 0.00 in0.0 mm 0.50 in12.7 mm
10:49 AM 33.1°F0.6°C 32.8°F0.4°C 99% Calm Calm -- 30.44 in1030.8 mb 0.00 in0.0 mm 0.00 in0.0 mm 0.50 in12.7 mm
10:50 AM 33.1°F0.6°C 32.8°F0.4°C 99% Calm Calm -- 30.44 in1030.8 mb 0.00 in0.0 mm 0.00 in0.0 mm 0.50 in12.7 mm
10:51 AM 33.1°F0.6°C 32.8°F0.4°C 99% Calm Calm -- 30.44 in1030.8 mb 0.00 in0.0 mm 0.00 in0.0 mm 0.50 in12.7 mm
10:52 AM 33.1°F0.6°C 32.8°F0.4°C 99% Calm Calm -- 30.44 in1030.8 mb 0.00 in0.0 mm 0.00 in0.0 mm 0.50 in12.7 mm
10:53 AM 33.3°F0.7°C 33.0°F0.6°C 99% Calm Calm -- 30.44 in1030.8 mb 0.00 in0.0 mm 0.00 in0.0 mm 0.50 in12.7 mm
10:54 AM 33.3°F0.7°C 33.0°F0.6°C 99% Calm Calm -- 30.44 in1030.8 mb 0.00 in0.0 mm 0.00 in0.0 mm 0.50 in12.7 mm
10:55 AM 33.3°F0.7°C 33.0°F0.6°C 99% Calm Calm -- 30.44 in1030.8 mb 0.00 in0.0 mm 0.00 in0.0 mm 0.50 in12.7 mm
10:56 AM 33.3°F0.7°C 33.0°F0.6°C 99% Calm Calm -- 30.44 in1030.8 mb 0.00 in0.0 mm 0.00 in0.0 mm 0.50 in12.7 mm
10:57 AM 33.3°F0.7°C 33.0°F0.6°C 99% Calm Calm -- 30.44 in1030.8 mb 0.00 in0.0 mm 0.00 in0.0 mm 0.50 in12.7 mm
10:58 AM 33.3°F0.7°C 33.0°F0.6°C 99% Calm Calm -- 30.44 in1030.8 mb 0.00 in0.0 mm 0.00 in0.0 mm 0.50 in12.7 mm
10:59 AM 33.3°F0.7°C 33.0°F0.6°C 99% 1.7 mph N2.7 kmh N 1.7 mph2.7 kmh 30.44 in1030.8 mb 0.00 in0.0 mm 0.00 in0.0 mm 0.50 in12.7 mm
11:00 AM 33.3°F0.7°C 33.0°F0.6°C 99% Calm Calm 1.7 mph2.7 kmh 30.44 in1030.8 mb 0.00 in0.0 mm 0.00 in0.0 mm 0.50 in12.7 mm
11:03 AM 33.4°F0.8°C 33.2°F0.7°C 99% Calm Calm 1.7 mph2.7 kmh 30.44 in1030.8 mb 0.00 in0.0 mm 0.00 in0.0 mm 0.50 in12.7 mm
11:04 AM 33.4°F0.8°C 33.2°F0.7°C 99% 1.1 mph N1.8 kmh N 1.7 mph2.7 kmh 30.44 in1030.8 mb 0.00 in0.0 mm 0.00 in0.0 mm 0.50 in12.7 mm
11:07 AM 33.4°F0.8°C 33.2°F0.7°C 99% Calm Calm 1.7 mph2.7 kmh 30.44 in1030.8 mb 0.00 in0.0 mm 0.00 in0.0 mm 0.50 in12.7 mm
11:08 AM 33.4°F0.8°C 33.2°F0.7°C 99% Calm Calm 1.7 mph2.7 kmh 30.44 in1030.8 mb 0.00 in0.0 mm 0.00 in0.0 mm 0.50 in12.7 mm
11:09 AM 33.4°F0.8°C 33.2°F0.7°C 99% Calm Calm 1.7 mph2.7 kmh 30.44 in1030.8 mb 0.00 in0.0 mm 0.00 in0.0 mm 0.50 in12.7 mm
11:10 AM 33.4°F0.8°C 33.2°F0.7°C 99% Calm Calm 1.1 mph1.8 kmh 30.44 in1030.8 mb 0.00 in0.0 mm 0.00 in0.0 mm 0.50 in12.7 mm
11:11 AM 33.4°F0.8°C 33.2°F0.7°C 99% Calm Calm 1.1 mph1.8 kmh 30.44 in1030.8 mb 0.00 in0.0 mm 0.00 in0.0 mm 0.50 in12.7 mm
11:12 AM 33.4°F0.8°C 33.2°F0.7°C 99% Calm Calm 1.1 mph1.8 kmh 30.44 in1030.8 mb 0.00 in0.0 mm 0.00 in0.0 mm 0.50 in12.7 mm
11:13 AM 33.6°F0.9°C 33.4°F0.8°C 99% Calm Calm 1.1 mph1.8 kmh 30.44 in1030.8 mb 0.00 in0.0 mm 0.00 in0.0 mm 0.50 in12.7 mm
11:17 AM 33.6°F0.9°C 33.4°F0.8°C 99% Calm Calm 2.7 mph4.3 kmh 30.44 in1030.8 mb 0.00 in0.0 mm 0.00 in0.0 mm 0.50 in12.7 mm
11:18 AM 33.6°F0.9°C 33.4°F0.8°C 99% Calm Calm 2.7 mph4.3 kmh 30.44 in1030.8 mb 0.00 in0.0 mm 0.00 in0.0 mm 0.50 in12.7 mm
11:19 AM 33.6°F0.9°C 33.4°F0.8°C 99% Calm Calm 2.7 mph4.3 kmh 30.44 in1030.8 mb 0.00 in0.0 mm 0.00 in0.0 mm 0.50 in12.7 mm
11:20 AM 33.6°F0.9°C 33.4°F0.8°C 99% Calm Calm 2.7 mph4.3 kmh 30.44 in1030.8 mb 0.00 in0.0 mm 0.00 in0.0 mm 0.50 in12.7 mm
11:21 AM 33.6°F0.9°C 33.4°F0.8°C 99% Calm Calm 2.7 mph4.3 kmh 30.44 in1030.8 mb 0.00 in0.0 mm 0.00 in0.0 mm 0.50 in12.7 mm
11:22 AM 33.6°F0.9°C 33.4°F0.8°C 99% Calm Calm 2.7 mph4.3 kmh 30.44 in1030.8 mb 0.00 in0.0 mm 0.00 in0.0 mm 0.50 in12.7 mm
11:23 AM 33.6°F0.9°C 33.4°F0.8°C 99% Calm Calm 2.7 mph4.3 kmh 30.44 in1030.8 mb 0.00 in0.0 mm 0.00 in0.0 mm 0.50 in12.7 mm
11:24 AM 33.6°F0.9°C 33.4°F0.8°C 99% Calm Calm 2.7 mph4.3 kmh 30.44 in1030.8 mb 0.00 in0.0 mm 0.00 in0.0 mm 0.50 in12.7 mm
11:25 AM 33.8°F1.0°C 33.5°F0.8°C 99% Calm Calm -- 30.44 in1030.8 mb 0.00 in0.0 mm 0.00 in0.0 mm 0.50 in12.7 mm
11:26 AM 33.8°F1.0°C 33.5°F0.8°C 99% Calm Calm -- 30.44 in1030.8 mb 0.00 in0.0 mm 0.00 in0.0 mm 0.50 in12.7 mm
11:27 AM 33.8°F1.0°C 33.5°F0.8°C 99% Calm Calm -- 30.44 in1030.8 mb 0.00 in0.0 mm 0.00 in0.0 mm 0.50 in12.7 mm
11:28 AM 33.8°F1.0°C 33.5°F0.8°C 99% Calm Calm -- 30.44 in1030.8 mb 0.00 in0.0 mm 0.00 in0.0 mm 0.50 in12.7 mm
11:29 AM 33.6°F0.9°C 33.4°F0.8°C 99% Calm Calm -- 30.44 in1030.8 mb 0.00 in0.0 mm 0.00 in0.0 mm 0.50 in12.7 mm
11:30 AM 33.6°F0.9°C 33.4°F0.8°C 99% Calm Calm -- 30.44 in1030.8 mb 0.00 in0.0 mm 0.00 in0.0 mm 0.50 in12.7 mm
11:31 AM 33.6°F0.9°C 33.4°F0.8°C 99% Calm Calm -- 30.44 in1030.8 mb 0.00 in0.0 mm 0.00 in0.0 mm 0.50 in12.7 mm
11:32 AM 33.6°F0.9°C 33.4°F0.8°C 99% Calm Calm -- 30.44 in1030.8 mb 0.00 in0.0 mm 0.00 in0.0 mm 0.50 in12.7 mm
11:34 AM 33.6°F0.9°C 33.4°F0.8°C 99% Calm Calm -- 30.44 in1030.8 mb 0.00 in0.0 mm 0.00 in0.0 mm 0.50 in12.7 mm
11:35 AM 33.6°F0.9°C 33.4°F0.8°C 99% Calm Calm -- 30.44 in1030.8 mb 0.00 in0.0 mm 0.00 in0.0 mm 0.50 in12.7 mm
11:36 AM 33.6°F0.9°C 33.4°F0.8°C 99% Calm Calm -- 30.44 in1030.8 mb 0.00 in0.0 mm 0.00 in0.0 mm 0.50 in12.7 mm
11:37 AM 33.6°F0.9°C 33.4°F0.8°C 99% Calm Calm -- 30.44 in1030.8 mb 0.00 in0.0 mm 0.00 in0.0 mm 0.50 in12.7 mm
11:38 AM 33.6°F0.9°C 33.4°F0.8°C 99% Calm Calm -- 30.43 in1030.5 mb 0.00 in0.0 mm 0.00 in0.0 mm 0.50 in12.7 mm
11:39 AM 33.6°F0.9°C 33.4°F0.8°C 99% Calm Calm -- 30.43 in1030.5 mb 0.00 in0.0 mm 0.00 in0.0 mm 0.50 in12.7 mm
11:40 AM 33.4°F0.8°C 33.2°F0.7°C 99% 3.7 mph ENE6.0 kmh ENE 3.7 mph6.0 kmh 30.43 in1030.5 mb 0.00 in0.0 mm 0.00 in0.0 mm 0.50 in12.7 mm
11:43 AM 33.3°F0.7°C 33.0°F0.6°C 99% Calm Calm 3.7 mph6.0 kmh 30.43 in1030.5 mb 0.00 in0.0 mm 0.00 in0.0 mm 0.50 in12.7 mm
11:44 AM 33.4°F0.8°C 33.2°F0.7°C 99% Calm Calm 3.7 mph6.0 kmh 30.43 in1030.5 mb 0.00 in0.0 mm 0.00 in0.0 mm 0.50 in12.7 mm
11:45 AM 33.4°F0.8°C 33.2°F0.7°C 99% Calm Calm 3.7 mph6.0 kmh 30.43 in1030.5 mb 0.00 in0.0 mm 0.00 in0.0 mm 0.50 in12.7 mm
11:46 AM 33.4°F0.8°C 33.2°F0.7°C 99% Calm Calm 3.7 mph6.0 kmh 30.43 in1030.5 mb 0.00 in0.0 mm 0.00 in0.0 mm 0.50 in12.7 mm
11:49 AM 33.4°F0.8°C 33.2°F0.7°C 99% Calm Calm 3.7 mph6.0 kmh 30.43 in1030.5 mb 0.00 in0.0 mm 0.00 in0.0 mm 0.50 in12.7 mm
11:50 AM 33.4°F0.8°C 33.2°F0.7°C 99% Calm Calm 3.7 mph6.0 kmh 30.44 in1030.8 mb 0.00 in0.0 mm 0.00 in0.0 mm 0.50 in12.7 mm
11:54 AM 33.4°F0.8°C 33.2°F0.7°C 99% Calm Calm -- 30.44 in1030.8 mb 0.00 in0.0 mm 0.00 in0.0 mm 0.50 in12.7 mm
11:55 AM 33.4°F0.8°C 33.2°F0.7°C 99% Calm Calm -- 30.44 in1030.8 mb 0.00 in0.0 mm 0.00 in0.0 mm 0.50 in12.7 mm
11:56 AM 33.4°F0.8°C 33.2°F0.7°C 99% Calm Calm -- 30.44 in1030.8 mb 0.00 in0.0 mm 0.00 in0.0 mm 0.50 in12.7 mm
11:58 AM 33.6°F0.9°C 33.4°F0.8°C 99% Calm Calm -- 30.44 in1030.8 mb 0.00 in0.0 mm 0.00 in0.0 mm 0.50 in12.7 mm
11:59 AM 33.6°F0.9°C 33.4°F0.8°C 99% Calm Calm -- 30.44 in1030.8 mb 0.00 in0.0 mm 0.00 in0.0 mm 0.50 in12.7 mm
12:00 PM 33.6°F0.9°C 33.4°F0.8°C 99% Calm Calm -- 30.44 in1030.8 mb 0.00 in0.0 mm 0.00 in0.0 mm 0.50 in12.7 mm
12:01 PM 33.6°F0.9°C 33.4°F0.8°C 99% Calm Calm -- 30.44 in1030.8 mb 0.00 in0.0 mm 0.00 in0.0 mm 0.50 in12.7 mm
12:02 PM 33.6°F0.9°C 33.4°F0.8°C 99% Calm Calm -- 30.43 in1030.5 mb 0.00 in0.0 mm 0.00 in0.0 mm 0.50 in12.7 mm
12:03 PM 33.6°F0.9°C 33.4°F0.8°C 99% Calm Calm -- 30.43 in1030.5 mb 0.00 in0.0 mm 0.00 in0.0 mm 0.50 in12.7 mm
12:04 PM 33.8°F1.0°C 33.5°F0.8°C 99% Calm Calm -- 30.43 in1030.5 mb 0.00 in0.0 mm 0.00 in0.0 mm 0.50 in12.7 mm
12:05 PM 33.8°F1.0°C 33.5°F0.8°C 99% Calm Calm -- 30.43 in1030.5 mb 0.00 in0.0 mm 0.00 in0.0 mm 0.50 in12.7 mm
12:06 PM 34.0°F1.1°C 33.7°F0.9°C 99% Calm Calm -- 30.43 in1030.5 mb 0.00 in0.0 mm 0.00 in0.0 mm 0.50 in12.7 mm
12:07 PM 34.0°F1.1°C 33.7°F0.9°C 99% Calm Calm -- 30.43 in1030.5 mb 0.00 in0.0 mm 0.00 in0.0 mm 0.50 in12.7 mm
12:08 PM 34.0°F1.1°C 33.7°F0.9°C 99% Calm Calm -- 30.43 in1030.5 mb 0.00 in0.0 mm 0.00 in0.0 mm 0.50 in12.7 mm
12:09 PM 34.0°F1.1°C 33.7°F0.9°C 99% Calm Calm -- 30.43 in1030.5 mb 0.00 in0.0 mm 0.00 in0.0 mm 0.50 in12.7 mm
12:10 PM 34.0°F1.1°C 33.7°F0.9°C 99% Calm Calm -- 30.43 in1030.5 mb 0.00 in0.0 mm 0.00 in0.0 mm 0.50 in12.7 mm
12:11 PM 34.0°F1.1°C 33.7°F0.9°C 99% Calm Calm -- 30.43 in1030.5 mb 0.00 in0.0 mm 0.00 in0.0 mm 0.50 in12.7 mm
12:12 PM 34.0°F1.1°C 33.7°F0.9°C 99% Calm Calm -- 30.43 in1030.5 mb 0.00 in0.0 mm 0.00 in0.0 mm 0.50 in12.7 mm
12:13 PM 34.2°F1.2°C 33.9°F1.1°C 99% Calm Calm -- 30.43 in1030.5 mb 0.00 in0.0 mm 0.00 in0.0 mm 0.50 in12.7 mm
12:14 PM 34.2°F1.2°C 33.9°F1.1°C 99% Calm Calm -- 30.43 in1030.5 mb 0.00 in0.0 mm 0.00 in0.0 mm 0.50 in12.7 mm
12:15 PM 34.5°F1.4°C 34.3°F1.3°C 99% Calm Calm -- 30.43 in1030.5 mb 0.00 in0.0 mm 0.00 in0.0 mm 0.50 in12.7 mm
12:16 PM 34.5°F1.4°C 34.3°F1.3°C 99% Calm Calm -- 30.43 in1030.5 mb 0.00 in0.0 mm 0.00 in0.0 mm 0.50 in12.7 mm
12:17 PM 34.5°F1.4°C 34.0°F1.1°C 98% Calm Calm -- 30.43 in1030.5 mb 0.00 in0.0 mm 0.00 in0.0 mm 0.50 in12.7 mm
12:18 PM 34.5°F1.4°C 34.0°F1.1°C 98% Calm Calm -- 30.43 in1030.5 mb 0.00 in0.0 mm 0.00 in0.0 mm 0.50 in12.7 mm
12:19 PM 34.5°F1.4°C 34.0°F1.1°C 98% Calm Calm -- 30.43 in1030.5 mb 0.00 in0.0 mm 0.00 in0.0 mm 0.50 in12.7 mm
12:20 PM 34.5°F1.4°C 34.0°F1.1°C 98% Calm Calm -- 30.43 in1030.5 mb 0.00 in0.0 mm 0.00 in0.0 mm 0.50 in12.7 mm
12:21 PM 34.7°F1.5°C 34.2°F1.2°C 98% Calm Calm -- 30.43 in1030.5 mb 0.00 in0.0 mm 0.00 in0.0 mm 0.50 in12.7 mm
12:22 PM 34.3°F1.3°C 33.8°F1.0°C 98% Calm Calm -- 30.43 in1030.5 mb 0.00 in0.0 mm 0.00 in0.0 mm 0.50 in12.7 mm
12:23 PM 34.3°F1.3°C 33.8°F1.0°C 98% Calm Calm -- 30.43 in1030.5 mb 0.00 in0.0 mm 0.00 in0.0 mm 0.50 in12.7 mm
12:24 PM 34.7°F1.5°C 34.2°F1.2°C 98% Calm Calm -- 30.43 in1030.5 mb 0.00 in0.0 mm 0.00 in0.0 mm 0.50 in12.7 mm
12:25 PM 34.9°F1.6°C 34.4°F1.3°C 98% Calm Calm -- 30.43 in1030.5 mb 0.00 in0.0 mm 0.00 in0.0 mm 0.50 in12.7 mm
12:26 PM 35.1°F1.7°C 34.3°F1.3°C 97% Calm Calm -- 30.42 in1030.1 mb 0.00 in0.0 mm 0.00 in0.0 mm 0.50 in12.7 mm
12:27 PM 35.1°F1.7°C 34.3°F1.3°C 97% Calm Calm -- 30.42 in1030.1 mb 0.00 in0.0 mm 0.00 in0.0 mm 0.50 in12.7 mm
12:28 PM 35.1°F1.7°C 34.3°F1.3°C 97% Calm Calm -- 30.42 in1030.1 mb 0.00 in0.0 mm 0.00 in0.0 mm 0.50 in12.7 mm
12:29 PM 35.1°F1.7°C 34.3°F1.3°C 97% Calm Calm -- 30.42 in1030.1 mb 0.00 in0.0 mm 0.00 in0.0 mm 0.50 in12.7 mm
12:30 PM 35.2°F1.8°C 34.5°F1.4°C 97% Calm Calm -- 30.42 in1030.1 mb 0.00 in0.0 mm 0.00 in0.0 mm 0.50 in12.7 mm
12:31 PM 35.2°F1.8°C 34.5°F1.4°C 97% Calm Calm -- 30.42 in1030.1 mb 0.00 in0.0 mm 0.00 in0.0 mm 0.50 in12.7 mm
12:32 PM 35.2°F1.8°C 34.5°F1.4°C 97% Calm Calm -- 30.42 in1030.1 mb 0.00 in0.0 mm 0.00 in0.0 mm 0.50 in12.7 mm
12:33 PM 35.4°F1.9°C 34.7°F1.5°C 97% Calm Calm -- 30.42 in1030.1 mb 0.00 in0.0 mm 0.00 in0.0 mm 0.50 in12.7 mm
12:34 PM 35.6°F2.0°C 34.6°F1.4°C 96% Calm Calm -- 30.42 in1030.1 mb 0.00 in0.0 mm 0.00 in0.0 mm 0.50 in12.7 mm
12:35 PM 35.4°F1.9°C 34.4°F1.3°C 96% Calm Calm -- 30.42 in1030.1 mb 0.00 in0.0 mm 0.00 in0.0 mm 0.50 in12.7 mm
12:36 PM 35.4°F1.9°C 34.4°F1.3°C 96% Calm Calm -- 30.42 in1030.1 mb 0.00 in0.0 mm 0.00 in0.0 mm 0.50 in12.7 mm
12:37 PM 35.4°F1.9°C 34.4°F1.3°C 96% Calm Calm -- 30.42 in1030.1 mb 0.00 in0.0 mm 0.00 in0.0 mm 0.50 in12.7 mm
12:38 PM 35.4°F1.9°C 34.4°F1.3°C 96% Calm Calm -- 30.43 in1030.5 mb 0.00 in0.0 mm 0.00 in0.0 mm 0.50 in12.7 mm
12:39 PM 35.6°F2.0°C 34.6°F1.4°C 96% Calm Calm -- 30.43 in1030.5 mb 0.00 in0.0 mm 0.00 in0.0 mm 0.50 in12.7 mm
12:40 PM 35.8°F2.1°C 34.8°F1.6°C 96% Calm Calm -- 30.43 in1030.5 mb 0.00 in0.0 mm 0.00 in0.0 mm 0.50 in12.7 mm
12:41 PM 35.8°F2.1°C 34.8°F1.6°C 96% Calm Calm -- 30.43 in1030.5 mb 0.00 in0.0 mm 0.00 in0.0 mm 0.50 in12.7 mm
12:42 PM 35.6°F2.0°C 34.6°F1.4°C 96% Calm Calm -- 30.43 in1030.5 mb 0.00 in0.0 mm 0.00 in0.0 mm 0.50 in12.7 mm
12:43 PM 35.6°F2.0°C 34.6°F1.4°C 96% Calm Calm -- 30.43 in1030.5 mb 0.00 in0.0 mm 0.00 in0.0 mm 0.50 in12.7 mm
12:44 PM 35.6°F2.0°C 34.6°F1.4°C 96% Calm Calm -- 30.43 in1030.5 mb 0.00 in0.0 mm 0.00 in0.0 mm 0.50 in12.7 mm
12:45 PM 35.6°F2.0°C 34.6°F1.4°C 96% Calm Calm -- 30.43 in1030.5 mb 0.00 in0.0 mm 0.00 in0.0 mm 0.50 in12.7 mm
12:46 PM 35.6°F2.0°C 34.6°F1.4°C 96% Calm Calm -- 30.43 in1030.5 mb 0.00 in0.0 mm 0.00 in0.0 mm 0.50 in12.7 mm
12:47 PM 35.4°F1.9°C 34.4°F1.3°C 96% Calm Calm -- 30.43 in1030.5 mb 0.00 in0.0 mm 0.00 in0.0 mm 0.50 in12.7 mm
12:48 PM 35.6°F2.0°C 34.6°F1.4°C 96% Calm Calm -- 30.43 in1030.5 mb 0.00 in0.0 mm 0.00 in0.0 mm 0.50 in12.7 mm
12:49 PM 35.8°F2.1°C 34.8°F1.6°C 96% Calm Calm -- 30.43 in1030.5 mb 0.00 in0.0 mm 0.00 in0.0 mm 0.50 in12.7 mm
12:50 PM 35.8°F2.1°C 34.8°F1.6°C 96% Calm Calm -- 30.42 in1030.1 mb 0.00 in0.0 mm 0.00 in0.0 mm 0.50 in12.7 mm
12:52 PM 35.8°F2.1°C 34.8°F1.6°C 96% Calm Calm -- 30.42 in1030.1 mb 0.00 in0.0 mm 0.00 in0.0 mm 0.50 in12.7 mm
12:54 PM 35.6°F2.0°C 34.6°F1.4°C 96% Calm Calm -- 30.42 in1030.1 mb 0.00 in0.0 mm 0.00 in0.0 mm 0.50 in12.7 mm
12:56 PM 35.6°F2.0°C 34.6°F1.4°C 96% Calm Calm -- 30.42 in1030.1 mb 0.00 in0.0 mm 0.00 in0.0 mm 0.50 in12.7 mm
12:57 PM 35.4°F1.9°C 34.4°F1.3°C 96% Calm Calm -- 30.42 in1030.1 mb 0.00 in0.0 mm 0.00 in0.0 mm 0.50 in12.7 mm
12:58 PM 35.4°F1.9°C 34.7°F1.5°C 97% Calm Calm -- 30.42 in1030.1 mb 0.00 in0.0 mm 0.00 in0.0 mm 0.50 in12.7 mm
12:59 PM 35.4°F1.9°C 34.7°F1.5°C 97% Calm Calm -- 30.42 in1030.1 mb 0.00 in0.0 mm 0.00 in0.0 mm 0.50 in12.7 mm
01:00 PM 35.6°F2.0°C 34.8°F1.6°C 97% Calm Calm -- 30.42 in1030.1 mb 0.00 in0.0 mm 0.00 in0.0 mm 0.50 in12.7 mm
01:01 PM 35.6°F2.0°C 34.8°F1.6°C 97% Calm Calm -- 30.42 in1030.1 mb 0.00 in0.0 mm 0.00 in0.0 mm 0.50 in12.7 mm
01:58 PM 37.9°F3.3°C 36.9°F2.7°C 96% Calm Calm -- 30.41 in1029.8 mb 0.02 in0.5 mm 0.02 in0.5 mm 0.52 in13.2 mm
03:12 PM 38.1°F3.4°C 32.2°F0.1°C 79% 3.2 mph N5.1 kmh N 9.4 mph15.1 kmh 30.40 in1029.5 mb 0.06 in1.5 mm 0.08 in2.0 mm 0.69 in17.5 mm
03:13 PM 38.1°F3.4°C 31.9°F-0.1°C 78% 2.7 mph NNW4.3 kmh NNW 9.4 mph15.1 kmh 30.41 in1029.8 mb 0.06 in1.5 mm 0.00 in0.0 mm 0.69 in17.5 mm
03:14 PM 38.1°F3.4°C 32.2°F0.1°C 79% 2.7 mph E4.3 kmh E 9.4 mph15.1 kmh 30.41 in1029.8 mb 0.06 in1.5 mm 0.00 in0.0 mm 0.69 in17.5 mm
03:15 PM 38.1°F3.4°C 31.9°F-0.1°C 78% 4.7 mph NNW7.6 kmh NNW 9.4 mph15.1 kmh 30.41 in1029.8 mb 0.06 in1.5 mm 0.00 in0.0 mm 0.69 in17.5 mm
03:16 PM 38.1°F3.4°C 31.6°F-0.2°C 77% 3.2 mph WNW5.1 kmh WNW 9.4 mph15.1 kmh 30.41 in1029.8 mb 0.06 in1.5 mm 0.00 in0.0 mm 0.69 in17.5 mm
03:17 PM 37.9°F3.3°C 31.7°F-0.2°C 78% Calm Calm 9.4 mph15.1 kmh 30.41 in1029.8 mb 0.06 in1.5 mm 0.00 in0.0 mm 0.69 in17.5 mm
03:18 PM 38.1°F3.4°C 31.9°F-0.1°C 78% 2.7 mph N4.3 kmh N 9.4 mph15.1 kmh 30.41 in1029.8 mb 0.06 in1.5 mm 0.00 in0.0 mm 0.69 in17.5 mm
03:19 PM 38.3°F3.5°C 32.1°F0.1°C 78% 4.2 mph N6.8 kmh N 9.4 mph15.1 kmh 30.41 in1029.8 mb 0.06 in1.5 mm 0.00 in0.0 mm 0.69 in17.5 mm
03:57 PM 39.0°F3.9°C 31.1°F-0.5°C 73% 3.7 mph N6.0 kmh N 9.4 mph15.1 kmh 30.42 in1030.1 mb 0.06 in1.5 mm 0.00 in0.0 mm 0.69 in17.5 mm
03:58 PM 39.0°F3.9°C 31.1°F-0.5°C 73% 3.7 mph NNE6.0 kmh NNE 9.4 mph15.1 kmh 30.42 in1030.1 mb 0.06 in1.5 mm 0.00 in0.0 mm 0.69 in17.5 mm
05:40 PM 37.0°F2.8°C 28.5°F-1.9°C 71% Calm Calm 2.7 mph4.3 kmh 30.44 in1030.8 mb 0.01 in0.3 mm 0.03 in0.8 mm 0.73 in18.5 mm
06:01 PM 35.8°F2.1°C 28.3°F-2.1°C 74% Calm Calm 1.1 mph1.8 kmh 30.44 in1030.8 mb 0.01 in0.3 mm 0.00 in0.0 mm 0.74 in18.8 mm
06:02 PM 35.8°F2.1°C 28.3°F-2.1°C 74% Calm Calm 1.1 mph1.8 kmh 30.44 in1030.8 mb 0.01 in0.3 mm 0.00 in0.0 mm 0.74 in18.8 mm
06:03 PM 35.8°F2.1°C 28.3°F-2.1°C 74% Calm Calm 1.1 mph1.8 kmh 30.44 in1030.8 mb 0.01 in0.3 mm 0.00 in0.0 mm 0.74 in18.8 mm
06:04 PM 35.8°F2.1°C 28.3°F-2.1°C 74% 2.7 mph N4.3 kmh N 2.7 mph4.3 kmh 30.44 in1030.8 mb 0.01 in0.3 mm 0.00 in0.0 mm 0.74 in18.8 mm
06:06 PM 35.6°F2.0°C 28.1°F-2.2°C 74% Calm Calm 4.2 mph6.8 kmh 30.44 in1030.8 mb 0.01 in0.3 mm 0.00 in0.0 mm 0.74 in18.8 mm
06:07 PM 35.6°F2.0°C 28.5°F-1.9°C 75% Calm Calm 4.2 mph6.8 kmh 30.44 in1030.8 mb 0.01 in0.3 mm 0.00 in0.0 mm 0.74 in18.8 mm
06:10 PM 35.6°F2.0°C 28.5°F-1.9°C 75% Calm Calm 4.2 mph6.8 kmh 30.44 in1030.8 mb 0.01 in0.3 mm 0.00 in0.0 mm 0.74 in18.8 mm
06:11 PM 35.6°F2.0°C 28.5°F-1.9°C 75% 2.7 mph NW4.3 kmh NW 4.2 mph6.8 kmh 30.44 in1030.8 mb 0.01 in0.3 mm 0.00 in0.0 mm 0.74 in18.8 mm
06:12 PM 35.4°F1.9°C 28.0°F-2.2°C 74% Calm Calm 4.2 mph6.8 kmh 30.44 in1030.8 mb 0.01 in0.3 mm 0.00 in0.0 mm 0.74 in18.8 mm
06:13 PM 35.4°F1.9°C 28.0°F-2.2°C 74% Calm Calm 4.2 mph6.8 kmh 30.44 in1030.8 mb 0.01 in0.3 mm 0.00 in0.0 mm 0.74 in18.8 mm
06:14 PM 35.4°F1.9°C 28.3°F-2.1°C 75% Calm Calm 4.2 mph6.8 kmh 30.45 in1031.2 mb 0.01 in0.3 mm 0.00 in0.0 mm 0.74 in18.8 mm
06:15 PM 35.4°F1.9°C 28.3°F-2.1°C 75% Calm Calm 2.7 mph4.3 kmh 30.45 in1031.2 mb 0.01 in0.3 mm 0.00 in0.0 mm 0.74 in18.8 mm
06:16 PM 35.4°F1.9°C 28.3°F-2.1°C 75% Calm Calm 2.7 mph4.3 kmh 30.45 in1031.2 mb 0.01 in0.3 mm 0.00 in0.0 mm 0.74 in18.8 mm
06:17 PM 35.4°F1.9°C 28.3°F-2.1°C 75% Calm Calm 2.7 mph4.3 kmh 30.45 in1031.2 mb 0.01 in0.3 mm 0.00 in0.0 mm 0.74 in18.8 mm
06:18 PM 35.4°F1.9°C 28.3°F-2.1°C 75% Calm Calm 2.7 mph4.3 kmh 30.45 in1031.2 mb 0.01 in0.3 mm 0.00 in0.0 mm 0.74 in18.8 mm
06:19 PM 35.2°F1.8°C 28.1°F-2.2°C 75% Calm Calm 2.7 mph4.3 kmh 30.45 in1031.2 mb 0.01 in0.3 mm 0.00 in0.0 mm 0.74 in18.8 mm
06:20 PM 35.2°F1.8°C 28.1°F-2.2°C 75% 2.2 mph N3.5 kmh N 2.7 mph4.3 kmh 30.45 in1031.2 mb 0.01 in0.3 mm 0.00 in0.0 mm 0.74 in18.8 mm
06:21 PM 35.2°F1.8°C 28.1°F-2.2°C 75% Calm Calm 2.7 mph4.3 kmh 30.45 in1031.2 mb 0.01 in0.3 mm 0.00 in0.0 mm 0.74 in18.8 mm
06:22 PM 35.2°F1.8°C 28.1°F-2.2°C 75% Calm Calm 2.2 mph3.5 kmh 30.45 in1031.2 mb 0.01 in0.3 mm 0.00 in0.0 mm 0.74 in18.8 mm
06:23 PM 35.2°F1.8°C 28.1°F-2.2°C 75% Calm Calm 2.2 mph3.5 kmh 30.45 in1031.2 mb 0.01 in0.3 mm 0.00 in0.0 mm 0.74 in18.8 mm
06:24 PM 35.1°F1.7°C 28.0°F-2.2°C 75% Calm Calm 2.2 mph3.5 kmh 30.45 in1031.2 mb 0.01 in0.3 mm 0.00 in0.0 mm 0.74 in18.8 mm
06:25 PM 35.1°F1.7°C 28.0°F-2.2°C 75% Calm Calm 2.2 mph3.5 kmh 30.45 in1031.2 mb 0.01 in0.3 mm 0.00 in0.0 mm 0.74 in18.8 mm
06:26 PM 35.1°F1.7°C 28.0°F-2.2°C 75% Calm Calm 2.2 mph3.5 kmh 30.46 in1031.5 mb 0.01 in0.3 mm 0.00 in0.0 mm 0.74 in18.8 mm
06:27 PM 35.1°F1.7°C 28.0°F-2.2°C 75% Calm Calm 2.2 mph3.5 kmh 30.46 in1031.5 mb 0.01 in0.3 mm 0.00 in0.0 mm 0.74 in18.8 mm
06:28 PM 35.1°F1.7°C 28.0°F-2.2°C 75% Calm Calm 2.2 mph3.5 kmh 30.46 in1031.5 mb 0.01 in0.3 mm 0.00 in0.0 mm 0.74 in18.8 mm
06:29 PM 35.1°F1.7°C 28.0°F-2.2°C 75% Calm Calm 2.2 mph3.5 kmh 30.46 in1031.5 mb 0.01 in0.3 mm 0.00 in0.0 mm 0.74 in18.8 mm
06:30 PM 35.1°F1.7°C 28.0°F-2.2°C 75% Calm Calm 2.2 mph3.5 kmh 30.46 in1031.5 mb 0.02 in0.5 mm 0.60 in15.2 mm 0.75 in19.1 mm
06:31 PM 35.1°F1.7°C 28.0°F-2.2°C 75% 1.1 mph N1.8 kmh N 2.2 mph3.5 kmh 30.46 in1031.5 mb 0.02 in0.5 mm 0.00 in0.0 mm 0.75 in19.1 mm
06:32 PM 35.1°F1.7°C 28.0°F-2.2°C 75% Calm Calm 2.2 mph3.5 kmh 30.46 in1031.5 mb 0.02 in0.5 mm 0.00 in0.0 mm 0.75 in19.1 mm
06:33 PM 35.1°F1.7°C 28.0°F-2.2°C 75% Calm Calm 2.2 mph3.5 kmh 30.46 in1031.5 mb 0.02 in0.5 mm 0.00 in0.0 mm 0.75 in19.1 mm
06:34 PM 35.1°F1.7°C 28.0°F-2.2°C 75% Calm Calm 2.2 mph3.5 kmh 30.46 in1031.5 mb 0.02 in0.5 mm 0.00 in0.0 mm 0.75 in19.1 mm
06:35 PM 35.1°F1.7°C 28.0°F-2.2°C 75% Calm Calm 2.2 mph3.5 kmh 30.46 in1031.5 mb 0.02 in0.5 mm 0.00 in0.0 mm 0.75 in19.1 mm
06:36 PM 35.1°F1.7°C 28.0°F-2.2°C 75% Calm Calm 2.2 mph3.5 kmh 30.46 in1031.5 mb 0.02 in0.5 mm 0.00 in0.0 mm 0.75 in19.1 mm
06:37 PM 35.1°F1.7°C 28.0°F-2.2°C 75% Calm Calm 2.2 mph3.5 kmh 30.46 in1031.5 mb 0.02 in0.5 mm 0.00 in0.0 mm 0.75 in19.1 mm
06:38 PM 35.1°F1.7°C 28.0°F-2.2°C 75% 2.2 mph NW3.5 kmh NW 2.2 mph3.5 kmh 30.46 in1031.5 mb 0.02 in0.5 mm 0.00 in0.0 mm 0.75 in19.1 mm
06:39 PM 35.1°F1.7°C 27.6°F-2.4°C 74% 1.7 mph NW2.7 kmh NW 3.2 mph5.1 kmh 30.46 in1031.5 mb 0.02 in0.5 mm 0.00 in0.0 mm 0.75 in19.1 mm
06:40 PM 35.1°F1.7°C 27.6°F-2.4°C 74% Calm Calm 3.2 mph5.1 kmh 30.46 in1031.5 mb 0.02 in0.5 mm 0.00 in0.0 mm 0.75 in19.1 mm
06:41 PM 35.1°F1.7°C 27.6°F-2.4°C 74% Calm Calm 3.2 mph5.1 kmh 30.46 in1031.5 mb 0.02 in0.5 mm 0.00 in0.0 mm 0.75 in19.1 mm
06:42 PM 35.1°F1.7°C 27.6°F-2.4°C 74% 2.7 mph NNW4.3 kmh NNW 5.3 mph8.5 kmh 30.46 in1031.5 mb 0.02 in0.5 mm 0.00 in0.0 mm 0.75 in19.1 mm
06:43 PM 35.1°F1.7°C 27.6°F-2.4°C 74% 2.7 mph N4.3 kmh N 5.3 mph8.5 kmh 30.46 in1031.5 mb 0.02 in0.5 mm 0.00 in0.0 mm 0.75 in19.1 mm
06:44 PM 35.1°F1.7°C 28.3°F-2.1°C 76% Calm Calm 5.3 mph8.5 kmh 30.46 in1031.5 mb 0.02 in0.5 mm 0.00 in0.0 mm 0.75 in19.1 mm
06:45 PM 35.1°F1.7°C 28.3°F-2.1°C 76% 3.2 mph NW5.1 kmh NW 5.3 mph8.5 kmh 30.46 in1031.5 mb 0.02 in0.5 mm 0.00 in0.0 mm 0.75 in19.1 mm
06:46 PM 35.1°F1.7°C 28.0°F-2.2°C 75% 2.2 mph NNW3.5 kmh NNW 5.3 mph8.5 kmh 30.46 in1031.5 mb 0.02 in0.5 mm 0.00 in0.0 mm 0.75 in19.1 mm
06:47 PM 35.1°F1.7°C 28.0°F-2.2°C 75% 3.2 mph WNW5.1 kmh WNW 5.3 mph8.5 kmh 30.46 in1031.5 mb 0.02 in0.5 mm 0.00 in0.0 mm 0.75 in19.1 mm
06:48 PM 35.1°F1.7°C 27.6°F-2.4°C 74% Calm Calm 5.3 mph8.5 kmh 30.46 in1031.5 mb 0.02 in0.5 mm 0.00 in0.0 mm 0.75 in19.1 mm
06:49 PM 35.1°F1.7°C 27.6°F-2.4°C 74% 2.2 mph NNW3.5 kmh NNW 5.3 mph8.5 kmh 30.46 in1031.5 mb 0.02 in0.5 mm 0.00 in0.0 mm 0.75 in19.1 mm
06:50 PM 35.1°F1.7°C 27.6°F-2.4°C 74% 3.7 mph NW6.0 kmh NW 5.3 mph8.5 kmh 30.47 in1031.8 mb 0.02 in0.5 mm 0.00 in0.0 mm 0.75 in19.1 mm
06:51 PM 35.1°F1.7°C 28.0°F-2.2°C 75% 2.7 mph N4.3 kmh N 5.3 mph8.5 kmh 30.47 in1031.8 mb 0.01 in0.3 mm 0.00 in0.0 mm 0.75 in19.1 mm
06:52 PM 35.1°F1.7°C 28.0°F-2.2°C 75% 8.3 mph NW13.4 kmh NW 8.3 mph13.4 kmh 30.47 in1031.8 mb 0.01 in0.3 mm 0.00 in0.0 mm 0.75 in19.1 mm
06:53 PM 35.1°F1.7°C 28.0°F-2.2°C 75% 2.7 mph NNW4.3 kmh NNW 8.3 mph13.4 kmh 30.47 in1031.8 mb 0.01 in0.3 mm 0.00 in0.0 mm 0.75 in19.1 mm
06:54 PM 35.1°F1.7°C 28.0°F-2.2°C 75% 3.2 mph N5.1 kmh N 8.3 mph13.4 kmh 30.47 in1031.8 mb 0.01 in0.3 mm 0.00 in0.0 mm 0.75 in19.1 mm
06:55 PM 35.1°F1.7°C 27.6°F-2.4°C 74% 3.7 mph N6.0 kmh N 8.3 mph13.4 kmh 30.47 in1031.8 mb 0.01 in0.3 mm 0.00 in0.0 mm 0.75 in19.1 mm
06:56 PM 35.1°F1.7°C 27.6°F-2.4°C 74% 3.7 mph NNW6.0 kmh NNW 8.3 mph13.4 kmh 30.47 in1031.8 mb 0.01 in0.3 mm 0.00 in0.0 mm 0.75 in19.1 mm
06:57 PM 35.1°F1.7°C 27.6°F-2.4°C 74% 3.7 mph NW6.0 kmh NW 8.3 mph13.4 kmh 30.47 in1031.8 mb 0.01 in0.3 mm 0.00 in0.0 mm 0.75 in19.1 mm
06:58 PM 35.1°F1.7°C 27.6°F-2.4°C 74% 4.2 mph N6.8 kmh N 8.3 mph13.4 kmh 30.47 in1031.8 mb 0.01 in0.3 mm 0.00 in0.0 mm 0.75 in19.1 mm
06:59 PM 35.1°F1.7°C 27.6°F-2.4°C 74% 2.7 mph N4.3 kmh N 8.3 mph13.4 kmh 30.47 in1031.8 mb 0.01 in0.3 mm 0.00 in0.0 mm 0.75 in19.1 mm
07:00 PM 34.9°F1.6°C 27.5°F-2.5°C 74% 2.7 mph N4.3 kmh N 8.3 mph13.4 kmh 30.47 in1031.8 mb 0.01 in0.3 mm 0.00 in0.0 mm 0.75 in19.1 mm
07:01 PM 34.9°F1.6°C 27.5°F-2.5°C 74% 3.7 mph NW6.0 kmh NW 8.3 mph13.4 kmh 30.47 in1031.8 mb 0.01 in0.3 mm 0.00 in0.0 mm 0.75 in19.1 mm
07:02 PM 34.9°F1.6°C 27.8°F-2.3°C 75% 4.2 mph WNW6.8 kmh WNW 8.3 mph13.4 kmh 30.48 in1032.2 mb 0.01 in0.3 mm 0.00 in0.0 mm 0.75 in19.1 mm
07:03 PM 34.9°F1.6°C 27.8°F-2.3°C 75% 4.2 mph NNW6.8 kmh NNW 4.7 mph7.6 kmh 30.48 in1032.2 mb 0.01 in0.3 mm 0.00 in0.0 mm 0.75 in19.1 mm
07:04 PM 34.9°F1.6°C 27.5°F-2.5°C 74% 4.7 mph NW7.6 kmh NW 5.3 mph8.5 kmh 30.48 in1032.2 mb 0.01 in0.3 mm 0.00 in0.0 mm 0.75 in19.1 mm
07:05 PM 34.7°F1.5°C 27.3°F-2.6°C 74% 5.3 mph W8.5 kmh W 5.3 mph8.5 kmh 30.48 in1032.2 mb 0.01 in0.3 mm 0.00 in0.0 mm 0.75 in19.1 mm
07:06 PM 34.7°F1.5°C 26.9°F-2.8°C 73% 3.7 mph W6.0 kmh W 5.3 mph8.5 kmh 30.48 in1032.2 mb 0.01 in0.3 mm 0.00 in0.0 mm 0.75 in19.1 mm
07:07 PM 34.7°F1.5°C 26.9°F-2.8°C 73% 3.2 mph N5.1 kmh N 5.3 mph8.5 kmh 30.48 in1032.2 mb 0.01 in0.3 mm 0.00 in0.0 mm 0.75 in19.1 mm
07:08 PM 34.7°F1.5°C 26.9°F-2.8°C 73% 5.3 mph N8.5 kmh N 5.3 mph8.5 kmh 30.48 in1032.2 mb 0.01 in0.3 mm 0.00 in0.0 mm 0.75 in19.1 mm
07:09 PM 34.5°F1.4°C 26.8°F-2.9°C 73% 3.7 mph NW6.0 kmh NW 5.8 mph9.3 kmh 30.48 in1032.2 mb 0.01 in0.3 mm 0.00 in0.0 mm 0.75 in19.1 mm
07:10 PM 34.3°F1.3°C 26.6°F-3.0°C 73% 3.7 mph ENE6.0 kmh ENE 5.8 mph9.3 kmh 30.48 in1032.2 mb 0.01 in0.3 mm 0.00 in0.0 mm 0.75 in19.1 mm
07:11 PM 34.3°F1.3°C 26.6°F-3.0°C 73% 5.3 mph N8.5 kmh N 7.3 mph11.7 kmh 30.48 in1032.2 mb 0.01 in0.3 mm 0.00 in0.0 mm 0.75 in19.1 mm
07:12 PM 34.3°F1.3°C 26.3°F-3.2°C 72% 4.2 mph NNW6.8 kmh NNW 7.3 mph11.7 kmh 30.48 in1032.2 mb 0.01 in0.3 mm 0.00 in0.0 mm 0.75 in19.1 mm
07:13 PM 34.3°F1.3°C 26.3°F-3.2°C 72% 2.7 mph NNE4.3 kmh NNE 7.3 mph11.7 kmh 30.48 in1032.2 mb 0.01 in0.3 mm 0.00 in0.0 mm 0.75 in19.1 mm
07:14 PM 34.3°F1.3°C 26.3°F-3.2°C 72% 3.7 mph NNW6.0 kmh NNW 7.3 mph11.7 kmh 30.48 in1032.2 mb 0.01 in0.3 mm 0.00 in0.0 mm 0.75 in19.1 mm
07:15 PM 34.2°F1.2°C 26.1°F-3.3°C 72% 3.2 mph NNW5.1 kmh NNW 7.3 mph11.7 kmh 30.48 in1032.2 mb 0.01 in0.3 mm 0.00 in0.0 mm 0.75 in19.1 mm
07:16 PM 34.2°F1.2°C 26.1°F-3.3°C 72% 4.2 mph NNE6.8 kmh NNE 7.3 mph11.7 kmh 30.48 in1032.2 mb 0.01 in0.3 mm 0.00 in0.0 mm 0.75 in19.1 mm
07:17 PM 34.2°F1.2°C 26.1°F-3.3°C 72% 2.2 mph N3.5 kmh N 7.3 mph11.7 kmh 30.48 in1032.2 mb 0.01 in0.3 mm 0.00 in0.0 mm 0.75 in19.1 mm
07:18 PM 34.0°F1.1°C 25.9°F-3.4°C 72% 4.7 mph NW7.6 kmh NW 7.3 mph11.7 kmh 30.48 in1032.2 mb 0.01 in0.3 mm 0.00 in0.0 mm 0.75 in19.1 mm
07:19 PM 34.0°F1.1°C 25.9°F-3.4°C 72% 3.7 mph N6.0 kmh N 7.3 mph11.7 kmh 30.48 in1032.2 mb 0.01 in0.3 mm 0.00 in0.0 mm 0.75 in19.1 mm
07:20 PM 34.0°F1.1°C 25.9°F-3.4°C 72% 3.2 mph N5.1 kmh N 7.3 mph11.7 kmh 30.48 in1032.2 mb 0.01 in0.3 mm 0.00 in0.0 mm 0.75 in19.1 mm
07:21 PM 34.0°F1.1°C 26.3°F-3.2°C 73% 4.7 mph NW7.6 kmh NW 5.8 mph9.3 kmh 30.48 in1032.2 mb 0.01 in0.3 mm 0.00 in0.0 mm 0.75 in19.1 mm
07:22 PM 33.8°F1.0°C 26.1°F-3.3°C 73% 2.7 mph N4.3 kmh N 5.8 mph9.3 kmh 30.48 in1032.2 mb 0.01 in0.3 mm 0.00 in0.0 mm 0.75 in19.1 mm
07:23 PM 33.8°F1.0°C 26.1°F-3.3°C 73% 1.7 mph N2.7 kmh N 5.8 mph9.3 kmh 30.48 in1032.2 mb 0.01 in0.3 mm 0.00 in0.0 mm 0.75 in19.1 mm
07:24 PM 33.8°F1.0°C 26.1°F-3.3°C 73% 2.7 mph NW4.3 kmh NW 5.8 mph9.3 kmh 30.48 in1032.2 mb 0.01 in0.3 mm 0.00 in0.0 mm 0.75 in19.1 mm
07:25 PM 33.6°F0.9°C 25.9°F-3.4°C 73% 4.7 mph N7.6 kmh N 5.8 mph9.3 kmh 30.48 in1032.2 mb 0.01 in0.3 mm 0.00 in0.0 mm 0.75 in19.1 mm
07:26 PM 33.6°F0.9°C 25.9°F-3.4°C 73% 3.2 mph N5.1 kmh N 5.8 mph9.3 kmh 30.48 in1032.2 mb 0.01 in0.3 mm 0.00 in0.0 mm 0.75 in19.1 mm
07:27 PM 33.6°F0.9°C 25.9°F-3.4°C 73% 4.2 mph N6.8 kmh N 5.8 mph9.3 kmh 30.48 in1032.2 mb 0.01 in0.3 mm 0.00 in0.0 mm 0.75 in19.1 mm
07:28 PM 33.6°F0.9°C 25.9°F-3.4°C 73% 3.7 mph N6.0 kmh N 5.3 mph8.5 kmh 30.48 in1032.2 mb 0.01 in0.3 mm 0.00 in0.0 mm 0.75 in19.1 mm
07:29 PM 33.6°F0.9°C 25.9°F-3.4°C 73% 3.7 mph NNW6.0 kmh NNW 5.3 mph8.5 kmh 30.48 in1032.2 mb 0.01 in0.3 mm 0.00 in0.0 mm 0.75 in19.1 mm
07:30 PM 33.4°F0.8°C 25.7°F-3.5°C 73% 2.7 mph N4.3 kmh N 5.3 mph8.5 kmh 30.48 in1032.2 mb 0.01 in0.3 mm 0.00 in0.0 mm 0.75 in19.1 mm
07:31 PM 33.4°F0.8°C 25.7°F-3.5°C 73% 4.7 mph NW7.6 kmh NW 5.3 mph8.5 kmh 30.48 in1032.2 mb 0.00 in0.0 mm 0.00 in0.0 mm 0.75 in19.1 mm
07:32 PM 33.4°F0.8°C 25.7°F-3.5°C 73% 2.7 mph N4.3 kmh N 5.3 mph8.5 kmh 30.48 in1032.2 mb 0.00 in0.0 mm 0.00 in0.0 mm 0.75 in19.1 mm
07:33 PM 33.4°F0.8°C 25.7°F-3.5°C 73% 1.7 mph N2.7 kmh N 5.3 mph8.5 kmh 30.48 in1032.2 mb 0.00 in0.0 mm 0.00 in0.0 mm 0.75 in19.1 mm
07:34 PM 33.3°F0.7°C 25.6°F-3.6°C 73% Calm Calm 5.3 mph8.5 kmh 30.48 in1032.2 mb 0.00 in0.0 mm 0.00 in0.0 mm 0.75 in19.1 mm
07:35 PM 33.3°F0.7°C 25.6°F-3.6°C 73% 4.2 mph NE6.8 kmh NE 5.3 mph8.5 kmh 30.48 in1032.2 mb 0.00 in0.0 mm 0.00 in0.0 mm 0.75 in19.1 mm
07:36 PM 33.3°F0.7°C 25.6°F-3.6°C 73% 4.2 mph NW6.8 kmh NW 5.3 mph8.5 kmh 30.48 in1032.2 mb 0.00 in0.0 mm 0.00 in0.0 mm 0.75 in19.1 mm
07:37 PM 33.1°F0.6°C 25.4°F-3.7°C 73% 4.2 mph NW6.8 kmh NW 5.3 mph8.5 kmh 30.48 in1032.2 mb 0.00 in0.0 mm 0.00 in0.0 mm 0.75 in19.1 mm
07:38 PM 33.1°F0.6°C 25.4°F-3.7°C 73% 5.8 mph NW9.3 kmh NW 5.8 mph9.3 kmh 30.49 in1032.5 mb 0.00 in0.0 mm 0.00 in0.0 mm 0.75 in19.1 mm
07:39 PM 33.1°F0.6°C 25.4°F-3.7°C 73% 2.7 mph NW4.3 kmh NW 5.8 mph9.3 kmh 30.49 in1032.5 mb 0.00 in0.0 mm 0.00 in0.0 mm 0.75 in19.1 mm
07:40 PM 33.1°F0.6°C 25.7°F-3.5°C 74% 2.2 mph NW3.5 kmh NW 5.8 mph9.3 kmh 30.49 in1032.5 mb 0.00 in0.0 mm 0.00 in0.0 mm 0.75 in19.1 mm
07:41 PM 32.9°F0.5°C 25.5°F-3.6°C 74% 2.7 mph NNW4.3 kmh NNW 5.8 mph9.3 kmh 30.49 in1032.5 mb 0.00 in0.0 mm 0.00 in0.0 mm 0.75 in19.1 mm
07:42 PM 32.9°F0.5°C 25.5°F-3.6°C 74% 2.7 mph N4.3 kmh N 5.8 mph9.3 kmh 30.49 in1032.5 mb 0.00 in0.0 mm 0.00 in0.0 mm 0.75 in19.1 mm
07:43 PM 32.9°F0.5°C 25.5°F-3.6°C 74% 2.7 mph N4.3 kmh N 5.8 mph9.3 kmh 30.49 in1032.5 mb 0.00 in0.0 mm 0.00 in0.0 mm 0.75 in19.1 mm
07:44 PM 32.9°F0.5°C 25.5°F-3.6°C 74% 4.2 mph N6.8 kmh N 5.8 mph9.3 kmh 30.49 in1032.5 mb 0.00 in0.0 mm 0.00 in0.0 mm 0.75 in19.1 mm
07:45 PM 32.7°F0.4°C 25.4°F-3.7°C 74% 4.2 mph NNW6.8 kmh NNW 5.8 mph9.3 kmh 30.49 in1032.5 mb 0.00 in0.0 mm 0.00 in0.0 mm 0.75 in19.1 mm
07:46 PM 32.7°F0.4°C 25.4°F-3.7°C 74% 1.7 mph N2.7 kmh N 5.8 mph9.3 kmh 30.49 in1032.5 mb 0.00 in0.0 mm 0.00 in0.0 mm 0.75 in19.1 mm
07:47 PM 32.7°F0.4°C 25.4°F-3.7°C 74% 1.7 mph N2.7 kmh N 5.8 mph9.3 kmh 30.49 in1032.5 mb 0.00 in0.0 mm 0.00 in0.0 mm 0.75 in19.1 mm
07:48 PM 32.7°F0.4°C 25.7°F-3.5°C 75% Calm Calm 5.8 mph9.3 kmh 30.49 in1032.5 mb 0.00 in0.0 mm 0.00 in0.0 mm 0.75 in19.1 mm
07:49 PM 32.5°F0.3°C 25.5°F-3.6°C 75% 4.7 mph NW7.6 kmh NW 4.7 mph7.6 kmh 30.49 in1032.5 mb 0.00 in0.0 mm 0.00 in0.0 mm 0.75 in19.1 mm
07:50 PM 32.5°F0.3°C 25.8°F-3.4°C 76% 2.7 mph NNW4.3 kmh NNW 4.7 mph7.6 kmh 30.49 in1032.5 mb 0.00 in0.0 mm 0.00 in0.0 mm 0.75 in19.1 mm
07:51 PM 32.5°F0.3°C 25.8°F-3.4°C 76% 5.8 mph N9.3 kmh N 5.8 mph9.3 kmh 30.49 in1032.5 mb 0.00 in0.0 mm 0.00 in0.0 mm 0.75 in19.1 mm
07:52 PM 32.5°F0.3°C 25.8°F-3.4°C 76% Calm Calm 5.8 mph9.3 kmh 30.49 in1032.5 mb 0.00 in0.0 mm 0.00 in0.0 mm 0.75 in19.1 mm
07:53 PM 32.5°F0.3°C 25.5°F-3.6°C 75% 2.7 mph N4.3 kmh N 5.8 mph9.3 kmh 30.49 in1032.5 mb 0.00 in0.0 mm 0.00 in0.0 mm 0.75 in19.1 mm
07:54 PM 32.5°F0.3°C 25.5°F-3.6°C 75% 3.7 mph NW6.0 kmh NW 5.8 mph9.3 kmh 30.49 in1032.5 mb 0.00 in0.0 mm 0.00 in0.0 mm 0.75 in19.1 mm
07:55 PM 32.5°F0.3°C 25.2°F-3.8°C 74% 2.2 mph NNW3.5 kmh NNW 5.8 mph9.3 kmh 30.49 in1032.5 mb 0.00 in0.0 mm 0.00 in0.0 mm 0.75 in19.1 mm
07:56 PM 32.5°F0.3°C 25.2°F-3.8°C 74% 1.1 mph N1.8 kmh N 5.8 mph9.3 kmh 30.49 in1032.5 mb 0.00 in0.0 mm 0.00 in0.0 mm 0.75 in19.1 mm
07:57 PM 32.4°F0.2°C 25.0°F-3.9°C 74% 3.7 mph N6.0 kmh N 5.8 mph9.3 kmh 30.49 in1032.5 mb 0.00 in0.0 mm 0.00 in0.0 mm 0.75 in19.1 mm
07:58 PM 32.4°F0.2°C 25.0°F-3.9°C 74% 3.7 mph N6.0 kmh N 5.8 mph9.3 kmh 30.49 in1032.5 mb 0.00 in0.0 mm 0.00 in0.0 mm 0.75 in19.1 mm
07:59 PM 32.4°F0.2°C 25.0°F-3.9°C 74% 5.3 mph W8.5 kmh W 5.8 mph9.3 kmh 30.49 in1032.5 mb 0.00 in0.0 mm 0.00 in0.0 mm 0.75 in19.1 mm
08:00 PM 32.4°F0.2°C 25.0°F-3.9°C 74% 3.2 mph NW5.1 kmh NW 5.8 mph9.3 kmh 30.49 in1032.5 mb 0.00 in0.0 mm 0.00 in0.0 mm 0.75 in19.1 mm
08:01 PM 32.4°F0.2°C 25.3°F-3.7°C 75% 2.7 mph N4.3 kmh N 5.8 mph9.3 kmh 30.49 in1032.5 mb 0.00 in0.0 mm 0.00 in0.0 mm 0.75 in19.1 mm
08:02 PM 32.4°F0.2°C 25.3°F-3.7°C 75% 5.3 mph NNW8.5 kmh NNW 5.3 mph8.5 kmh 30.50 in1032.8 mb 0.00 in0.0 mm 0.00 in0.0 mm 0.75 in19.1 mm
08:03 PM 32.2°F0.1°C 24.8°F-4.0°C 74% 2.7 mph NW4.3 kmh NW 5.3 mph8.5 kmh 30.50 in1032.8 mb 0.00 in0.0 mm 0.00 in0.0 mm 0.75 in19.1 mm
08:04 PM 32.2°F0.1°C 24.8°F-4.0°C 74% 1.7 mph N2.7 kmh N 5.3 mph8.5 kmh 30.50 in1032.8 mb 0.00 in0.0 mm 0.00 in0.0 mm 0.75 in19.1 mm
08:05 PM 32.2°F0.1°C 25.2°F-3.8°C 75% 2.7 mph N4.3 kmh N 5.3 mph8.5 kmh 30.50 in1032.8 mb 0.00 in0.0 mm 0.00 in0.0 mm 0.75 in19.1 mm
08:06 PM 32.2°F0.1°C 25.2°F-3.8°C 75% 2.7 mph N4.3 kmh N 5.3 mph8.5 kmh 30.50 in1032.8 mb 0.00 in0.0 mm 0.00 in0.0 mm 0.75 in19.1 mm
08:07 PM 32.2°F0.1°C 25.2°F-3.8°C 75% Calm Calm 5.3 mph8.5 kmh 30.50 in1032.8 mb 0.00 in0.0 mm 0.00 in0.0 mm 0.75 in19.1 mm
08:08 PM 32.0°F0.0°C 25.0°F-3.9°C 75% 1.7 mph N2.7 kmh N 5.3 mph8.5 kmh 30.50 in1032.8 mb 0.00 in0.0 mm 0.00 in0.0 mm 0.75 in19.1 mm
08:09 PM 32.0°F0.0°C 25.0°F-3.9°C 75% 4.2 mph W6.8 kmh W 5.3 mph8.5 kmh 30.50 in1032.8 mb 0.00 in0.0 mm 0.00 in0.0 mm 0.75 in19.1 mm
08:10 PM 32.0°F0.0°C 25.0°F-3.9°C 75% 3.7 mph N6.0 kmh N 5.3 mph8.5 kmh 30.50 in1032.8 mb 0.00 in0.0 mm 0.00 in0.0 mm 0.75 in19.1 mm
08:11 PM 32.0°F0.0°C 25.0°F-3.9°C 75% 2.7 mph WNW4.3 kmh WNW 5.3 mph8.5 kmh 30.50 in1032.8 mb 0.00 in0.0 mm 0.00 in0.0 mm 0.75 in19.1 mm
08:12 PM 32.0°F0.0°C 25.0°F-3.9°C 75% 3.7 mph N6.0 kmh N 5.3 mph8.5 kmh 30.50 in1032.8 mb 0.00 in0.0 mm 0.00 in0.0 mm 0.75 in19.1 mm
08:13 PM 32.0°F0.0°C 25.3°F-3.7°C 76% 2.2 mph N3.5 kmh N 4.7 mph7.6 kmh 30.50 in1032.8 mb 0.00 in0.0 mm 0.00 in0.0 mm 0.75 in19.1 mm
08:14 PM 32.0°F0.0°C 25.3°F-3.7°C 76% 3.7 mph N6.0 kmh N 4.7 mph7.6 kmh 30.50 in1032.8 mb 0.00 in0.0 mm 0.00 in0.0 mm 0.75 in19.1 mm
08:15 PM 32.0°F0.0°C 25.3°F-3.7°C 76% 3.2 mph NW5.1 kmh NW 4.7 mph7.6 kmh 30.50 in1032.8 mb 0.00 in0.0 mm 0.00 in0.0 mm 0.75 in19.1 mm
08:16 PM 32.0°F0.0°C 25.0°F-3.9°C 75% 2.7 mph NW4.3 kmh NW 4.7 mph7.6 kmh 30.50 in1032.8 mb 0.00 in0.0 mm 0.00 in0.0 mm 0.75 in19.1 mm
08:17 PM 32.0°F0.0°C 25.0°F-3.9°C 75% 3.7 mph NNW6.0 kmh NNW 4.7 mph7.6 kmh 30.50 in1032.8 mb 0.00 in0.0 mm 0.00 in0.0 mm 0.75 in19.1 mm
08:18 PM 32.0°F0.0°C 25.0°F-3.9°C 75% 2.7 mph NW4.3 kmh NW 4.7 mph7.6 kmh 30.50 in1032.8 mb 0.00 in0.0 mm 0.00 in0.0 mm 0.75 in19.1 mm
08:19 PM 32.0°F0.0°C 25.0°F-3.9°C 75% 3.2 mph NW5.1 kmh NW 4.7 mph7.6 kmh 30.50 in1032.8 mb 0.00 in0.0 mm 0.00 in0.0 mm 0.75 in19.1 mm
08:20 PM 31.8°F-0.1°C 24.8°F-4.0°C 75% 3.7 mph NW6.0 kmh NW 4.2 mph6.8 kmh 30.50 in1032.8 mb 0.00 in0.0 mm 0.00 in0.0 mm 0.75 in19.1 mm
08:21 PM 31.8°F-0.1°C 24.8°F-4.0°C 75% 3.2 mph NNW5.1 kmh NNW 6.8 mph10.9 kmh 30.50 in1032.8 mb 0.00 in0.0 mm 0.00 in0.0 mm 0.75 in19.1 mm
08:22 PM 31.8°F-0.1°C 24.8°F-4.0°C 75% 2.2 mph N3.5 kmh N 6.8 mph10.9 kmh 30.50 in1032.8 mb 0.00 in0.0 mm 0.00 in0.0 mm 0.75 in19.1 mm
08:23 PM 31.8°F-0.1°C 24.8°F-4.0°C 75% 3.7 mph N6.0 kmh N 6.8 mph10.9 kmh 30.50 in1032.8 mb 0.00 in0.0 mm 0.00 in0.0 mm 0.75 in19.1 mm
08:24 PM 31.8°F-0.1°C 24.8°F-4.0°C 75% 2.7 mph NNW4.3 kmh NNW 6.8 mph10.9 kmh 30.50 in1032.8 mb 0.00 in0.0 mm 0.00 in0.0 mm 0.75 in19.1 mm
08:25 PM 31.8°F-0.1°C 24.8°F-4.0°C 75% 2.7 mph NW4.3 kmh NW 6.8 mph10.9 kmh 30.50 in1032.8 mb 0.00 in0.0 mm 0.00 in0.0 mm 0.75 in19.1 mm
08:26 PM 31.8°F-0.1°C 24.8°F-4.0°C 75% 3.7 mph N6.0 kmh N 6.8 mph10.9 kmh 30.50 in1032.8 mb 0.00 in0.0 mm 0.00 in0.0 mm 0.75 in19.1 mm
08:27 PM 31.8°F-0.1°C 24.8°F-4.0°C 75% 4.7 mph NNW7.6 kmh NNW 6.8 mph10.9 kmh 30.50 in1032.8 mb 0.00 in0.0 mm 0.00 in0.0 mm 0.75 in19.1 mm
08:28 PM 31.8°F-0.1°C 24.5°F-4.2°C 74% 3.2 mph N5.1 kmh N 6.8 mph10.9 kmh 30.50 in1032.8 mb 0.00 in0.0 mm 0.00 in0.0 mm 0.75 in19.1 mm
08:29 PM 31.8°F-0.1°C 24.5°F-4.2°C 74% 2.7 mph N4.3 kmh N 6.8 mph10.9 kmh 30.50 in1032.8 mb 0.00 in0.0 mm 0.00 in0.0 mm 0.75 in19.1 mm
08:30 PM 31.8°F-0.1°C 24.5°F-4.2°C 74% 3.2 mph N5.1 kmh N 6.8 mph10.9 kmh 30.50 in1032.8 mb 0.00 in0.0 mm 0.00 in0.0 mm 0.75 in19.1 mm
08:31 PM 31.8°F-0.1°C 24.5°F-4.2°C 74% 3.7 mph NNW6.0 kmh NNW 4.7 mph7.6 kmh 30.50 in1032.8 mb 0.00 in0.0 mm 0.00 in0.0 mm 0.75 in19.1 mm
08:32 PM 31.8°F-0.1°C 24.5°F-4.2°C 74% 3.2 mph N5.1 kmh N 4.7 mph7.6 kmh 30.50 in1032.8 mb 0.00 in0.0 mm 0.00 in0.0 mm 0.75 in19.1 mm
08:33 PM 31.8°F-0.1°C 24.5°F-4.2°C 74% 6.3 mph NW10.1 kmh NW 7.3 mph11.7 kmh 30.50 in1032.8 mb 0.00 in0.0 mm 0.00 in0.0 mm 0.75 in19.1 mm
08:34 PM 31.8°F-0.1°C 24.5°F-4.2°C 74% 3.7 mph N6.0 kmh N 7.3 mph11.7 kmh 30.50 in1032.8 mb 0.00 in0.0 mm 0.00 in0.0 mm 0.75 in19.1 mm
08:35 PM 31.8°F-0.1°C 24.5°F-4.2°C 74% 3.2 mph NW5.1 kmh NW 7.3 mph11.7 kmh 30.50 in1032.8 mb 0.00 in0.0 mm 0.00 in0.0 mm 0.75 in19.1 mm
08:36 PM 31.6°F-0.2°C 24.3°F-4.3°C 74% 4.2 mph NW6.8 kmh NW 7.3 mph11.7 kmh 30.50 in1032.8 mb 0.00 in0.0 mm 0.00 in0.0 mm 0.75 in19.1 mm
08:37 PM 31.6°F-0.2°C 24.3°F-4.3°C 74% 2.7 mph NNW4.3 kmh NNW 7.3 mph11.7 kmh 30.50 in1032.8 mb 0.00 in0.0 mm 0.00 in0.0 mm 0.75 in19.1 mm
08:38 PM 31.6°F-0.2°C 24.3°F-4.3°C 74% 3.2 mph NNW5.1 kmh NNW 7.3 mph11.7 kmh 30.51 in1033.2 mb 0.00 in0.0 mm 0.00 in0.0 mm 0.75 in19.1 mm
08:39 PM 31.6°F-0.2°C 24.3°F-4.3°C 74% 2.7 mph N4.3 kmh N 7.3 mph11.7 kmh 30.51 in1033.2 mb 0.00 in0.0 mm 0.00 in0.0 mm 0.75 in19.1 mm
08:40 PM 31.6°F-0.2°C 24.3°F-4.3°C 74% 4.2 mph WNW6.8 kmh WNW 7.3 mph11.7 kmh 30.51 in1033.2 mb 0.00 in0.0 mm 0.00 in0.0 mm 0.75 in19.1 mm
08:41 PM 31.6°F-0.2°C 24.3°F-4.3°C 74% 3.7 mph N6.0 kmh N 7.3 mph11.7 kmh 30.51 in1033.2 mb 0.00 in0.0 mm 0.00 in0.0 mm 0.75 in19.1 mm
08:42 PM 31.6°F-0.2°C 24.3°F-4.3°C 74% 3.7 mph N6.0 kmh N 7.3 mph11.7 kmh 30.51 in1033.2 mb 0.00 in0.0 mm 0.00 in0.0 mm 0.75 in19.1 mm
08:43 PM 31.6°F-0.2°C 24.3°F-4.3°C 74% 4.2 mph NNW6.8 kmh NNW 6.8 mph10.9 kmh 30.51 in1033.2 mb 0.00 in0.0 mm 0.00 in0.0 mm 0.75 in19.1 mm
08:44 PM 31.6°F-0.2°C 24.3°F-4.3°C 74% 3.2 mph N5.1 kmh N 6.8 mph10.9 kmh 30.51 in1033.2 mb 0.00 in0.0 mm 0.00 in0.0 mm 0.75 in19.1 mm
08:45 PM 31.6°F-0.2°C 24.0°F-4.4°C 73% 9.4 mph NNE15.1 kmh NNE 9.4 mph15.1 kmh 30.51 in1033.2 mb 0.00 in0.0 mm 0.00 in0.0 mm 0.75 in19.1 mm
08:46 PM 31.6°F-0.2°C 24.3°F-4.3°C 74% 4.2 mph NNE6.8 kmh NNE 9.4 mph15.1 kmh 30.51 in1033.2 mb 0.00 in0.0 mm 0.00 in0.0 mm 0.75 in19.1 mm
08:47 PM 31.5°F-0.3°C 24.1°F-4.4°C 74% 4.2 mph N6.8 kmh N 9.4 mph15.1 kmh 30.51 in1033.2 mb 0.00 in0.0 mm 0.00 in0.0 mm 0.75 in19.1 mm
08:48 PM 31.5°F-0.3°C 23.8°F-4.6°C 73% 4.7 mph NE7.6 kmh NE 9.4 mph15.1 kmh 30.51 in1033.2 mb 0.00 in0.0 mm 0.00 in0.0 mm 0.75 in19.1 mm
08:49 PM 31.5°F-0.3°C 23.5°F-4.7°C 72% 7.3 mph NE11.7 kmh NE 9.4 mph15.1 kmh 30.51 in1033.2 mb 0.00 in0.0 mm 0.00 in0.0 mm 0.75 in19.1 mm
08:50 PM 31.5°F-0.3°C 23.5°F-4.7°C 72% 3.2 mph N5.1 kmh N 9.4 mph15.1 kmh 30.51 in1033.2 mb 0.00 in0.0 mm 0.00 in0.0 mm 0.75 in19.1 mm
08:51 PM 31.5°F-0.3°C 23.5°F-4.7°C 72% 4.7 mph N7.6 kmh N 9.4 mph15.1 kmh 30.51 in1033.2 mb 0.00 in0.0 mm 0.00 in0.0 mm 0.75 in19.1 mm
08:52 PM 31.5°F-0.3°C 23.8°F-4.6°C 73% 2.2 mph N3.5 kmh N 9.4 mph15.1 kmh 30.51 in1033.2 mb 0.00 in0.0 mm 0.00 in0.0 mm 0.75 in19.1 mm
08:53 PM 31.5°F-0.3°C 23.8°F-4.6°C 73% 3.2 mph N5.1 kmh N 9.4 mph15.1 kmh 30.51 in1033.2 mb 0.00 in0.0 mm 0.00 in0.0 mm 0.75 in19.1 mm
08:54 PM 31.5°F-0.3°C 23.8°F-4.6°C 73% 2.2 mph N3.5 kmh N 9.4 mph15.1 kmh 30.51 in1033.2 mb 0.00 in0.0 mm 0.00 in0.0 mm 0.75 in19.1 mm
08:55 PM 31.3°F-0.4°C 23.6°F-4.7°C 73% 3.7 mph NNW6.0 kmh NNW 9.4 mph15.1 kmh 30.51 in1033.2 mb 0.00 in0.0 mm 0.00 in0.0 mm 0.75 in19.1 mm
08:56 PM 31.3°F-0.4°C 23.6°F-4.7°C 73% 3.2 mph WNW5.1 kmh WNW 7.3 mph11.7 kmh 30.51 in1033.2 mb 0.00 in0.0 mm 0.00 in0.0 mm 0.75 in19.1 mm
08:57 PM 31.3°F-0.4°C 23.6°F-4.7°C 73% 3.2 mph NNW5.1 kmh NNW 7.3 mph11.7 kmh 30.51 in1033.2 mb 0.00 in0.0 mm 0.00 in0.0 mm 0.75 in19.1 mm
08:58 PM 31.3°F-0.4°C 23.6°F-4.7°C 73% 2.7 mph W4.3 kmh W 7.3 mph11.7 kmh 30.51 in1033.2 mb 0.00 in0.0 mm 0.00 in0.0 mm 0.75 in19.1 mm
08:59 PM 31.3°F-0.4°C 23.6°F-4.7°C 73% 1.7 mph N2.7 kmh N 7.3 mph11.7 kmh 30.51 in1033.2 mb 0.00 in0.0 mm 0.00 in0.0 mm 0.75 in19.1 mm
09:00 PM 31.1°F-0.5°C 23.5°F-4.7°C 73% Calm Calm 4.7 mph7.6 kmh 30.51 in1033.2 mb 0.00 in0.0 mm 0.00 in0.0 mm 0.75 in19.1 mm
09:01 PM 31.1°F-0.5°C 24.1°F-4.4°C 75% 2.7 mph NW4.3 kmh NW 4.7 mph7.6 kmh 30.51 in1033.2 mb 0.00 in0.0 mm 0.00 in0.0 mm 0.75 in19.1 mm
09:02 PM 30.9°F-0.6°C 23.9°F-4.5°C 75% 2.2 mph NNW3.5 kmh NNW 4.2 mph6.8 kmh 30.52 in1033.5 mb 0.00 in0.0 mm 0.00 in0.0 mm 0.75 in19.1 mm
09:03 PM 30.9°F-0.6°C 23.9°F-4.5°C 75% 3.2 mph N5.1 kmh N 4.2 mph6.8 kmh 30.52 in1033.5 mb 0.00 in0.0 mm 0.00 in0.0 mm 0.75 in19.1 mm
09:04 PM 30.9°F-0.6°C 23.9°F-4.5°C 75% Calm Calm 4.2 mph6.8 kmh 30.52 in1033.5 mb 0.00 in0.0 mm 0.00 in0.0 mm 0.75 in19.1 mm
09:05 PM 30.9°F-0.6°C 23.9°F-4.5°C 75% 10.4 mph W16.7 kmh W 10.4 mph16.7 kmh 30.52 in1033.5 mb 0.00 in0.0 mm 0.00 in0.0 mm 0.75 in19.1 mm
09:06 PM 30.9°F-0.6°C 23.9°F-4.5°C 75% 2.2 mph N3.5 kmh N 10.4 mph16.7 kmh 30.52 in1033.5 mb 0.00 in0.0 mm 0.00 in0.0 mm 0.75 in19.1 mm
09:07 PM 30.7°F-0.7°C 23.8°F-4.6°C 75% 4.2 mph WNW6.8 kmh WNW 10.4 mph16.7 kmh 30.52 in1033.5 mb 0.00 in0.0 mm 0.00 in0.0 mm 0.75 in19.1 mm
09:08 PM 30.7°F-0.7°C 23.8°F-4.6°C 75% 3.7 mph N6.0 kmh N 10.4 mph16.7 kmh 30.52 in1033.5 mb 0.00 in0.0 mm 0.00 in0.0 mm 0.75 in19.1 mm
09:09 PM 30.7°F-0.7°C 23.5°F-4.7°C 74% 4.7 mph N7.6 kmh N 10.4 mph16.7 kmh 30.52 in1033.5 mb 0.00 in0.0 mm 0.00 in0.0 mm 0.75 in19.1 mm
09:10 PM 30.7°F-0.7°C 23.5°F-4.7°C 74% 3.2 mph N5.1 kmh N 10.4 mph16.7 kmh 30.52 in1033.5 mb 0.00 in0.0 mm 0.00 in0.0 mm 0.75 in19.1 mm
09:11 PM 30.7°F-0.7°C 23.1°F-4.9°C 73% 3.7 mph NW6.0 kmh NW 10.4 mph16.7 kmh 30.52 in1033.5 mb 0.00 in0.0 mm 0.00 in0.0 mm 0.75 in19.1 mm
09:12 PM 30.6°F-0.8°C 23.3°F-4.8°C 74% 2.7 mph NNW4.3 kmh NNW 10.4 mph16.7 kmh 30.52 in1033.5 mb 0.00 in0.0 mm 0.00 in0.0 mm 0.75 in19.1 mm
09:13 PM 30.6°F-0.8°C 23.3°F-4.8°C 74% Calm Calm 10.4 mph16.7 kmh 30.52 in1033.5 mb 0.00 in0.0 mm 0.00 in0.0 mm 0.75 in19.1 mm
09:14 PM 30.6°F-0.8°C 23.3°F-4.8°C 74% Calm Calm 10.4 mph16.7 kmh 30.52 in1033.5 mb 0.00 in0.0 mm 0.00 in0.0 mm 0.75 in19.1 mm
09:15 PM 30.6°F-0.8°C 23.3°F-4.8°C 74% Calm Calm 10.4 mph16.7 kmh 30.52 in1033.5 mb 0.00 in0.0 mm 0.00 in0.0 mm 0.75 in19.1 mm
09:16 PM 30.6°F-0.8°C 23.3°F-4.8°C 74% 1.1 mph N1.8 kmh N 5.8 mph9.3 kmh 30.52 in1033.5 mb 0.00 in0.0 mm 0.00 in0.0 mm 0.75 in19.1 mm
09:17 PM 30.4°F-0.9°C 22.8°F-5.1°C 73% Calm Calm 5.8 mph9.3 kmh 30.52 in1033.5 mb 0.00 in0.0 mm 0.00 in0.0 mm 0.75 in19.1 mm
09:18 PM 30.4°F-0.9°C 22.8°F-5.1°C 73% 2.2 mph N3.5 kmh N 5.8 mph9.3 kmh 30.52 in1033.5 mb 0.00 in0.0 mm 0.00 in0.0 mm 0.75 in19.1 mm
09:19 PM 30.4°F-0.9°C 23.1°F-4.9°C 74% 3.2 mph NNW5.1 kmh NNW 5.8 mph9.3 kmh 30.52 in1033.5 mb 0.00 in0.0 mm 0.00 in0.0 mm 0.75 in19.1 mm
09:20 PM 30.4°F-0.9°C 23.1°F-4.9°C 74% 4.2 mph NW6.8 kmh NW 5.8 mph9.3 kmh 30.52 in1033.5 mb 0.00 in0.0 mm 0.00 in0.0 mm 0.75 in19.1 mm
09:21 PM 30.4°F-0.9°C 22.8°F-5.1°C 73% 3.2 mph NW5.1 kmh NW 5.8 mph9.3 kmh 30.52 in1033.5 mb 0.00 in0.0 mm 0.00 in0.0 mm 0.75 in19.1 mm
09:22 PM 30.2°F-1.0°C 22.6°F-5.2°C 73% 3.2 mph N5.1 kmh N 5.8 mph9.3 kmh 30.52 in1033.5 mb 0.00 in0.0 mm 0.00 in0.0 mm 0.75 in19.1 mm
09:23 PM 30.2°F-1.0°C 22.6°F-5.2°C 73% 3.7 mph N6.0 kmh N 5.8 mph9.3 kmh 30.52 in1033.5 mb 0.00 in0.0 mm 0.00 in0.0 mm 0.75 in19.1 mm
09:24 PM 30.2°F-1.0°C 22.6°F-5.2°C 73% 3.7 mph N6.0 kmh N 5.8 mph9.3 kmh 30.52 in1033.5 mb 0.00 in0.0 mm 0.00 in0.0 mm 0.75 in19.1 mm
09:25 PM 30.2°F-1.0°C 22.6°F-5.2°C 73% 3.2 mph NNW5.1 kmh NNW 5.8 mph9.3 kmh 30.52 in1033.5 mb 0.00 in0.0 mm 0.00 in0.0 mm 0.75 in19.1 mm
09:26 PM 30.2°F-1.0°C 22.6°F-5.2°C 73% Calm Calm 5.8 mph9.3 kmh 30.53 in1033.9 mb 0.00 in0.0 mm 0.00 in0.0 mm 0.75 in19.1 mm
09:27 PM 30.0°F-1.1°C 22.8°F-5.1°C 74% Calm Calm 5.8 mph9.3 kmh 30.53 in1033.9 mb 0.00 in0.0 mm 0.00 in0.0 mm 0.75 in19.1 mm
09:28 PM 30.0°F-1.1°C 22.8°F-5.1°C 74% Calm Calm 5.8 mph9.3 kmh 30.53 in1033.9 mb 0.00 in0.0 mm 0.00 in0.0 mm 0.75 in19.1 mm
09:29 PM 29.8°F-1.2°C 22.6°F-5.2°C 74% Calm Calm 4.7 mph7.6 kmh 30.53 in1033.9 mb 0.00 in0.0 mm 0.00 in0.0 mm 0.75 in19.1 mm
09:30 PM 29.8°F-1.2°C 22.6°F-5.2°C 74% Calm Calm 4.2 mph6.8 kmh 30.53 in1033.9 mb 0.00 in0.0 mm 0.00 in0.0 mm 0.75 in19.1 mm
09:31 PM 29.8°F-1.2°C 22.6°F-5.2°C 74% Calm Calm 3.7 mph6.0 kmh 30.53 in1033.9 mb 0.00 in0.0 mm 0.00 in0.0 mm 0.75 in19.1 mm
09:32 PM 29.7°F-1.3°C 22.4°F-5.3°C 74% Calm Calm 3.7 mph6.0 kmh 30.53 in1033.9 mb 0.00 in0.0 mm 0.00 in0.0 mm 0.75 in19.1 mm
09:33 PM 29.7°F-1.3°C 22.4°F-5.3°C 74% 3.2 mph N5.1 kmh N 4.2 mph6.8 kmh 30.53 in1033.9 mb 0.00 in0.0 mm 0.00 in0.0 mm 0.75 in19.1 mm
09:34 PM 29.7°F-1.3°C 22.4°F-5.3°C 74% 3.2 mph N5.1 kmh N 4.2 mph6.8 kmh 30.53 in1033.9 mb 0.00 in0.0 mm 0.00 in0.0 mm 0.75 in19.1 mm
09:35 PM 29.7°F-1.3°C 22.4°F-5.3°C 74% 4.2 mph NNE6.8 kmh NNE 4.2 mph6.8 kmh 30.53 in1033.9 mb 0.00 in0.0 mm 0.00 in0.0 mm 0.75 in19.1 mm
09:36 PM 29.7°F-1.3°C 22.4°F-5.3°C 74% 2.7 mph N4.3 kmh N 4.2 mph6.8 kmh 30.53 in1033.9 mb 0.00 in0.0 mm 0.00 in0.0 mm 0.75 in19.1 mm
09:37 PM 29.5°F-1.4°C 22.2°F-5.4°C 74% 2.7 mph NNW4.3 kmh NNW 4.2 mph6.8 kmh 30.53 in1033.9 mb 0.00 in0.0 mm 0.00 in0.0 mm 0.75 in19.1 mm
09:38 PM 29.5°F-1.4°C 22.2°F-5.4°C 74% 2.7 mph N4.3 kmh N 4.2 mph6.8 kmh 30.53 in1033.9 mb 0.00 in0.0 mm 0.00 in0.0 mm 0.75 in19.1 mm
09:39 PM 29.5°F-1.4°C 22.2°F-5.4°C 74% 3.2 mph N5.1 kmh N 4.2 mph6.8 kmh 30.53 in1033.9 mb 0.00 in0.0 mm 0.00 in0.0 mm 0.75 in19.1 mm
09:40 PM 29.5°F-1.4°C 22.2°F-5.4°C 74% 2.7 mph N4.3 kmh N 4.2 mph6.8 kmh 30.53 in1033.9 mb 0.00 in0.0 mm 0.00 in0.0 mm 0.75 in19.1 mm
09:41 PM 29.5°F-1.4°C 22.2°F-5.4°C 74% 4.7 mph NW7.6 kmh NW 4.7 mph7.6 kmh 30.53 in1033.9 mb 0.00 in0.0 mm 0.00 in0.0 mm 0.75 in19.1 mm
09:42 PM 29.3°F-1.5°C 22.1°F-5.5°C 74% 2.7 mph NW4.3 kmh NW 4.7 mph7.6 kmh 30.53 in1033.9 mb 0.00 in0.0 mm 0.00 in0.0 mm 0.75 in19.1 mm
09:43 PM 29.3°F-1.5°C 22.1°F-5.5°C 74% 3.2 mph N5.1 kmh N 4.7 mph7.6 kmh 30.53 in1033.9 mb 0.00 in0.0 mm 0.00 in0.0 mm 0.75 in19.1 mm
09:44 PM 29.3°F-1.5°C 22.1°F-5.5°C 74% 2.7 mph N4.3 kmh N 4.7 mph7.6 kmh 30.53 in1033.9 mb 0.00 in0.0 mm 0.00 in0.0 mm 0.75 in19.1 mm
09:45 PM 29.3°F-1.5°C 22.1°F-5.5°C 74% 3.2 mph NW5.1 kmh NW 5.3 mph8.5 kmh 30.53 in1033.9 mb 0.00 in0.0 mm 0.00 in0.0 mm 0.75 in19.1 mm
09:46 PM 29.3°F-1.5°C 22.1°F-5.5°C 74% 2.7 mph WNW4.3 kmh WNW 5.3 mph8.5 kmh 30.53 in1033.9 mb 0.00 in0.0 mm 0.00 in0.0 mm 0.75 in19.1 mm
09:47 PM 29.3°F-1.5°C 22.4°F-5.3°C 75% 3.2 mph N5.1 kmh N 5.3 mph8.5 kmh 30.53 in1033.9 mb 0.00 in0.0 mm 0.00 in0.0 mm 0.75 in19.1 mm
09:48 PM 29.3°F-1.5°C 22.1°F-5.5°C 74% 1.7 mph NNW2.7 kmh NNW 5.3 mph8.5 kmh 30.53 in1033.9 mb 0.00 in0.0 mm 0.00 in0.0 mm 0.75 in19.1 mm
09:49 PM 29.1°F-1.6°C 21.9°F-5.6°C 74% 2.7 mph NW4.3 kmh NW 5.3 mph8.5 kmh 30.53 in1033.9 mb 0.00 in0.0 mm 0.00 in0.0 mm 0.75 in19.1 mm
09:50 PM 29.1°F-1.6°C 21.9°F-5.6°C 74% 3.7 mph N6.0 kmh N 5.3 mph8.5 kmh 30.53 in1033.9 mb 0.00 in0.0 mm 0.00 in0.0 mm 0.75 in19.1 mm
09:51 PM 29.1°F-1.6°C 21.9°F-5.6°C 74% 3.2 mph N5.1 kmh N 5.3 mph8.5 kmh 30.53 in1033.9 mb 0.00 in0.0 mm 0.00 in0.0 mm 0.75 in19.1 mm
09:52 PM 29.1°F-1.6°C 21.9°F-5.6°C 74% 2.2 mph NNW3.5 kmh NNW 5.3 mph8.5 kmh 30.53 in1033.9 mb 0.00 in0.0 mm 0.00 in0.0 mm 0.75 in19.1 mm
09:53 PM 29.1°F-1.6°C 21.9°F-5.6°C 74% 2.7 mph NW4.3 kmh NW 5.3 mph8.5 kmh 30.53 in1033.9 mb 0.00 in0.0 mm 0.00 in0.0 mm 0.75 in19.1 mm
09:54 PM 29.1°F-1.6°C 21.9°F-5.6°C 74% 2.2 mph N3.5 kmh N 5.3 mph8.5 kmh 30.53 in1033.9 mb 0.00 in0.0 mm 0.00 in0.0 mm 0.75 in19.1 mm
09:55 PM 28.9°F-1.7°C 21.7°F-5.7°C 74% Calm Calm 5.3 mph8.5 kmh 30.53 in1033.9 mb 0.00 in0.0 mm 0.00 in0.0 mm 0.75 in19.1 mm
09:56 PM 28.9°F-1.7°C 22.0°F-5.6°C 75% 2.2 mph N3.5 kmh N 5.3 mph8.5 kmh 30.53 in1033.9 mb 0.00 in0.0 mm 0.00 in0.0 mm 0.75 in19.1 mm
09:57 PM 28.8°F-1.8°C 21.9°F-5.6°C 75% 3.7 mph WNW6.0 kmh WNW 5.3 mph8.5 kmh 30.53 in1033.9 mb 0.00 in0.0 mm 0.00 in0.0 mm 0.75 in19.1 mm
09:58 PM 28.8°F-1.8°C 21.9°F-5.6°C 75% 2.2 mph NW3.5 kmh NW 5.3 mph8.5 kmh 30.53 in1033.9 mb 0.00 in0.0 mm 0.00 in0.0 mm 0.75 in19.1 mm
09:59 PM 28.8°F-1.8°C 21.9°F-5.6°C 75% 3.7 mph NW6.0 kmh NW 5.3 mph8.5 kmh 30.53 in1033.9 mb 0.00 in0.0 mm 0.00 in0.0 mm 0.75 in19.1 mm
10:00 PM 28.8°F-1.8°C 21.5°F-5.8°C 74% 2.2 mph N3.5 kmh N 5.3 mph8.5 kmh 30.53 in1033.9 mb 0.00 in0.0 mm 0.00 in0.0 mm 0.75 in19.1 mm
10:01 PM 28.8°F-1.8°C 21.5°F-5.8°C 74% 3.2 mph N5.1 kmh N 5.3 mph8.5 kmh 30.53 in1033.9 mb 0.00 in0.0 mm 0.00 in0.0 mm 0.75 in19.1 mm
10:02 PM 28.8°F-1.8°C 21.5°F-5.8°C 74% 2.2 mph N3.5 kmh N 5.3 mph8.5 kmh 30.54 in1034.2 mb 0.00 in0.0 mm 0.00 in0.0 mm 0.75 in19.1 mm
10:03 PM 28.8°F-1.8°C 21.5°F-5.8°C 74% 2.2 mph NW3.5 kmh NW 5.3 mph8.5 kmh 30.54 in1034.2 mb 0.00 in0.0 mm 0.00 in0.0 mm 0.75 in19.1 mm
10:04 PM 28.8°F-1.8°C 21.5°F-5.8°C 74% 3.7 mph N6.0 kmh N 5.3 mph8.5 kmh 30.54 in1034.2 mb 0.00 in0.0 mm 0.00 in0.0 mm 0.75 in19.1 mm
10:05 PM 28.8°F-1.8°C 21.5°F-5.8°C 74% 3.2 mph N5.1 kmh N 5.3 mph8.5 kmh 30.54 in1034.2 mb 0.00 in0.0 mm 0.00 in0.0 mm 0.75 in19.1 mm
10:06 PM 28.8°F-1.8°C 21.5°F-5.8°C 74% Calm Calm 5.3 mph8.5 kmh 30.54 in1034.2 mb 0.00 in0.0 mm 0.00 in0.0 mm 0.75 in19.1 mm
10:07 PM 28.8°F-1.8°C 21.5°F-5.8°C 74% 3.7 mph N6.0 kmh N 5.3 mph8.5 kmh 30.54 in1034.2 mb 0.00 in0.0 mm 0.00 in0.0 mm 0.75 in19.1 mm
10:08 PM 28.8°F-1.8°C 21.5°F-5.8°C 74% Calm Calm 5.3 mph8.5 kmh 30.54 in1034.2 mb 0.00 in0.0 mm 0.00 in0.0 mm 0.75 in19.1 mm
10:09 PM 28.8°F-1.8°C 21.2°F-6.0°C 73% 2.2 mph WNW3.5 kmh WNW 5.3 mph8.5 kmh 30.54 in1034.2 mb 0.00 in0.0 mm 0.00 in0.0 mm 0.75 in19.1 mm
10:10 PM 28.8°F-1.8°C 21.2°F-6.0°C 73% 2.7 mph N4.3 kmh N 4.7 mph7.6 kmh 30.54 in1034.2 mb 0.00 in0.0 mm 0.00 in0.0 mm 0.75 in19.1 mm
10:11 PM 28.8°F-1.8°C 21.2°F-6.0°C 73% 2.2 mph N3.5 kmh N 5.3 mph8.5 kmh 30.54 in1034.2 mb 0.00 in0.0 mm 0.00 in0.0 mm 0.75 in19.1 mm
10:12 PM 28.8°F-1.8°C 21.2°F-6.0°C 73% 3.7 mph N6.0 kmh N 5.3 mph8.5 kmh 30.54 in1034.2 mb 0.00 in0.0 mm 0.00 in0.0 mm 0.75 in19.1 mm
10:13 PM 28.8°F-1.8°C 21.2°F-6.0°C 73% Calm Calm 5.3 mph8.5 kmh 30.54 in1034.2 mb 0.00 in0.0 mm 0.00 in0.0 mm 0.75 in19.1 mm
10:14 PM 28.8°F-1.8°C 21.2°F-6.0°C 73% 3.2 mph N5.1 kmh N 5.3 mph8.5 kmh 30.54 in1034.2 mb 0.00 in0.0 mm 0.00 in0.0 mm 0.75 in19.1 mm
10:15 PM 28.6°F-1.9°C 21.0°F-6.1°C 73% 4.7 mph NW7.6 kmh NW 5.3 mph8.5 kmh 30.54 in1034.2 mb 0.00 in0.0 mm 0.00 in0.0 mm 0.75 in19.1 mm
10:16 PM 28.6°F-1.9°C 21.4°F-5.9°C 74% 2.2 mph WNW3.5 kmh WNW 5.3 mph8.5 kmh 30.54 in1034.2 mb 0.00 in0.0 mm 0.00 in0.0 mm 0.75 in19.1 mm
10:17 PM 28.4°F-2.0°C 21.2°F-6.0°C 74% 2.2 mph N3.5 kmh N 5.3 mph8.5 kmh 30.54 in1034.2 mb 0.00 in0.0 mm 0.00 in0.0 mm 0.75 in19.1 mm
10:18 PM 28.4°F-2.0°C 21.2°F-6.0°C 74% Calm Calm 5.3 mph8.5 kmh 30.54 in1034.2 mb 0.00 in0.0 mm 0.00 in0.0 mm 0.75 in19.1 mm
10:19 PM 28.4°F-2.0°C 21.2°F-6.0°C 74% 1.7 mph N2.7 kmh N 5.3 mph8.5 kmh 30.54 in1034.2 mb 0.00 in0.0 mm 0.00 in0.0 mm 0.75 in19.1 mm
10:20 PM 28.4°F-2.0°C 21.2°F-6.0°C 74% 2.7 mph N4.3 kmh N 5.3 mph8.5 kmh 30.54 in1034.2 mb 0.00 in0.0 mm 0.00 in0.0 mm 0.75 in19.1 mm
10:21 PM 28.2°F-2.1°C 21.0°F-6.1°C 74% 2.2 mph N3.5 kmh N 4.7 mph7.6 kmh 30.54 in1034.2 mb 0.00 in0.0 mm 0.00 in0.0 mm 0.75 in19.1 mm
10:22 PM 28.2°F-2.1°C 21.0°F-6.1°C 74% 1.7 mph N2.7 kmh N 4.7 mph7.6 kmh 30.54 in1034.2 mb 0.00 in0.0 mm 0.00 in0.0 mm 0.75 in19.1 mm
10:23 PM 28.2°F-2.1°C 21.0°F-6.1°C 74% 2.7 mph N4.3 kmh N 4.7 mph7.6 kmh 30.54 in1034.2 mb 0.00 in0.0 mm 0.00 in0.0 mm 0.75 in19.1 mm
10:24 PM 28.2°F-2.1°C 21.0°F-6.1°C 74% 3.7 mph N6.0 kmh N 4.7 mph7.6 kmh 30.54 in1034.2 mb 0.00 in0.0 mm 0.00 in0.0 mm 0.75 in19.1 mm
10:25 PM 28.2°F-2.1°C 21.0°F-6.1°C 74% 3.7 mph N6.0 kmh N 4.7 mph7.6 kmh 30.54 in1034.2 mb 0.00 in0.0 mm 0.00 in0.0 mm 0.75 in19.1 mm
10:26 PM 28.2°F-2.1°C 21.0°F-6.1°C 74% 3.2 mph WNW5.1 kmh WNW 3.7 mph6.0 kmh 30.55 in1034.5 mb 0.00 in0.0 mm 0.00 in0.0 mm 0.75 in19.1 mm
10:27 PM 28.2°F-2.1°C 21.0°F-6.1°C 74% 3.7 mph NNE6.0 kmh NNE 4.7 mph7.6 kmh 30.55 in1034.5 mb 0.00 in0.0 mm 0.00 in0.0 mm 0.75 in19.1 mm
10:28 PM 28.2°F-2.1°C 21.0°F-6.1°C 74% 2.7 mph N4.3 kmh N 4.7 mph7.6 kmh 30.55 in1034.5 mb 0.00 in0.0 mm 0.00 in0.0 mm 0.75 in19.1 mm
10:29 PM 28.2°F-2.1°C 21.0°F-6.1°C 74% 2.7 mph N4.3 kmh N 4.7 mph7.6 kmh 30.55 in1034.5 mb 0.00 in0.0 mm 0.00 in0.0 mm 0.75 in19.1 mm
10:30 PM 28.2°F-2.1°C 20.7°F-6.3°C 73% 2.7 mph NNW4.3 kmh NNW 4.7 mph7.6 kmh 30.55 in1034.5 mb 0.00 in0.0 mm 0.00 in0.0 mm 0.75 in19.1 mm
10:31 PM 28.2°F-2.1°C 20.7°F-6.3°C 73% 2.7 mph N4.3 kmh N 4.7 mph7.6 kmh 30.55 in1034.5 mb 0.00 in0.0 mm 0.00 in0.0 mm 0.75 in19.1 mm
10:32 PM 28.2°F-2.1°C 20.7°F-6.3°C 73% 2.7 mph NNW4.3 kmh NNW 4.7 mph7.6 kmh 30.55 in1034.5 mb 0.00 in0.0 mm 0.00 in0.0 mm 0.75 in19.1 mm
10:33 PM 28.0°F-2.2°C 20.5°F-6.4°C 73% 3.2 mph NW5.1 kmh NW 4.7 mph7.6 kmh 30.55 in1034.5 mb 0.00 in0.0 mm 0.00 in0.0 mm 0.75 in19.1 mm
10:34 PM 28.0°F-2.2°C 20.8°F-6.2°C 74% 2.7 mph N4.3 kmh N 4.7 mph7.6 kmh 30.55 in1034.5 mb 0.00 in0.0 mm 0.00 in0.0 mm 0.75 in19.1 mm
10:35 PM 28.0°F-2.2°C 20.8°F-6.2°C 74% 2.2 mph N3.5 kmh N 4.7 mph7.6 kmh 30.55 in1034.5 mb 0.00 in0.0 mm 0.00 in0.0 mm 0.75 in19.1 mm
10:36 PM 28.0°F-2.2°C 20.8°F-6.2°C 74% 4.7 mph NW7.6 kmh NW 4.7 mph7.6 kmh 30.55 in1034.5 mb 0.00 in0.0 mm 0.00 in0.0 mm 0.75 in19.1 mm
10:37 PM 28.0°F-2.2°C 20.8°F-6.2°C 74% 3.2 mph N5.1 kmh N 4.7 mph7.6 kmh 30.55 in1034.5 mb 0.00 in0.0 mm 0.00 in0.0 mm 0.75 in19.1 mm
10:38 PM 27.9°F-2.3°C 20.7°F-6.3°C 74% 2.2 mph NW3.5 kmh NW 4.7 mph7.6 kmh 30.55 in1034.5 mb 0.00 in0.0 mm 0.00 in0.0 mm 0.75 in19.1 mm
10:39 PM 27.9°F-2.3°C 20.7°F-6.3°C 74% 2.2 mph NW3.5 kmh NW 4.7 mph7.6 kmh 30.55 in1034.5 mb 0.00 in0.0 mm 0.00 in0.0 mm 0.75 in19.1 mm
10:40 PM 27.9°F-2.3°C 20.7°F-6.3°C 74% 3.7 mph N6.0 kmh N 4.7 mph7.6 kmh 30.55 in1034.5 mb 0.00 in0.0 mm 0.00 in0.0 mm 0.75 in19.1 mm
10:41 PM 27.9°F-2.3°C 20.7°F-6.3°C 74% 5.3 mph N8.5 kmh N 5.3 mph8.5 kmh 30.55 in1034.5 mb 0.00 in0.0 mm 0.00 in0.0 mm 0.75 in19.1 mm
10:42 PM 27.9°F-2.3°C 20.7°F-6.3°C 74% 2.7 mph NNW4.3 kmh NNW 5.3 mph8.5 kmh 30.55 in1034.5 mb 0.00 in0.0 mm 0.00 in0.0 mm 0.75 in19.1 mm
10:43 PM 27.7°F-2.4°C 20.5°F-6.4°C 74% 1.7 mph NW2.7 kmh NW 5.3 mph8.5 kmh 30.55 in1034.5 mb 0.00 in0.0 mm 0.00 in0.0 mm 0.75 in19.1 mm
10:44 PM 27.7°F-2.4°C 20.8°F-6.2°C 75% 2.7 mph NW4.3 kmh NW 5.3 mph8.5 kmh 30.55 in1034.5 mb 0.00 in0.0 mm 0.00 in0.0 mm 0.75 in19.1 mm
10:45 PM 27.7°F-2.4°C 20.8°F-6.2°C 75% 4.2 mph NW6.8 kmh NW 5.8 mph9.3 kmh 30.55 in1034.5 mb 0.00 in0.0 mm 0.00 in0.0 mm 0.75 in19.1 mm
10:46 PM 27.7°F-2.4°C 20.5°F-6.4°C 74% 3.2 mph N5.1 kmh N 5.8 mph9.3 kmh 30.55 in1034.5 mb 0.00 in0.0 mm 0.00 in0.0 mm 0.75 in19.1 mm
10:47 PM 27.7°F-2.4°C 20.5°F-6.4°C 74% 2.7 mph NNW4.3 kmh NNW 5.8 mph9.3 kmh 30.55 in1034.5 mb 0.00 in0.0 mm 0.00 in0.0 mm 0.75 in19.1 mm
10:48 PM 27.7°F-2.4°C 20.5°F-6.4°C 74% Calm Calm 5.8 mph9.3 kmh 30.55 in1034.5 mb 0.00 in0.0 mm 0.00 in0.0 mm 0.75 in19.1 mm
10:49 PM 27.7°F-2.4°C 20.5°F-6.4°C 74% 3.2 mph NW5.1 kmh NW 5.8 mph9.3 kmh 30.55 in1034.5 mb 0.00 in0.0 mm 0.00 in0.0 mm 0.75 in19.1 mm
10:50 PM 27.7°F-2.4°C 20.8°F-6.2°C 75% 4.2 mph N6.8 kmh N 5.8 mph9.3 kmh 30.55 in1034.5 mb 0.00 in0.0 mm 0.00 in0.0 mm 0.75 in19.1 mm
10:51 PM 27.7°F-2.4°C 20.8°F-6.2°C 75% 2.7 mph WNW4.3 kmh WNW 5.8 mph9.3 kmh 30.55 in1034.5 mb 0.00 in0.0 mm 0.00 in0.0 mm 0.75 in19.1 mm
10:52 PM 27.5°F-2.5°C 20.6°F-6.3°C 75% 4.2 mph NW6.8 kmh NW 5.8 mph9.3 kmh 30.55 in1034.5 mb 0.00 in0.0 mm 0.00 in0.0 mm 0.75 in19.1 mm
10:53 PM 27.5°F-2.5°C 20.3°F-6.5°C 74% 2.7 mph N4.3 kmh N 5.8 mph9.3 kmh 30.55 in1034.5 mb 0.00 in0.0 mm 0.00 in0.0 mm 0.75 in19.1 mm
10:54 PM 27.5°F-2.5°C 20.3°F-6.5°C 74% 2.2 mph NNW3.5 kmh NNW 5.8 mph9.3 kmh 30.55 in1034.5 mb 0.00 in0.0 mm 0.00 in0.0 mm 0.75 in19.1 mm
10:55 PM 27.5°F-2.5°C 20.3°F-6.5°C 74% 3.2 mph NW5.1 kmh NW 4.2 mph6.8 kmh 30.55 in1034.5 mb 0.00 in0.0 mm 0.00 in0.0 mm 0.75 in19.1 mm
10:56 PM 27.5°F-2.5°C 20.3°F-6.5°C 74% 4.2 mph N6.8 kmh N 4.7 mph7.6 kmh 30.55 in1034.5 mb 0.00 in0.0 mm 0.00 in0.0 mm 0.75 in19.1 mm
10:57 PM 27.5°F-2.5°C 20.3°F-6.5°C 74% 3.7 mph WNW6.0 kmh WNW 4.7 mph7.6 kmh 30.55 in1034.5 mb 0.00 in0.0 mm 0.00 in0.0 mm 0.75 in19.1 mm
10:58 PM 27.5°F-2.5°C 20.3°F-6.5°C 74% 4.7 mph NW7.6 kmh NW 4.7 mph7.6 kmh 30.55 in1034.5 mb 0.00 in0.0 mm 0.00 in0.0 mm 0.75 in19.1 mm
10:59 PM 27.5°F-2.5°C 20.3°F-6.5°C 74% 4.7 mph WNW7.6 kmh WNW 4.7 mph7.6 kmh 30.55 in1034.5 mb 0.00 in0.0 mm 0.00 in0.0 mm 0.75 in19.1 mm
11:00 PM 27.5°F-2.5°C 20.3°F-6.5°C 74% 2.7 mph NW4.3 kmh NW 4.7 mph7.6 kmh 30.55 in1034.5 mb 0.00 in0.0 mm 0.00 in0.0 mm 0.75 in19.1 mm
11:01 PM 27.5°F-2.5°C 20.6°F-6.3°C 75% 3.2 mph NNW5.1 kmh NNW 4.7 mph7.6 kmh 30.55 in1034.5 mb 0.00 in0.0 mm 0.00 in0.0 mm 0.75 in19.1 mm
11:02 PM 27.5°F-2.5°C 20.3°F-6.5°C 74% 4.7 mph NNW7.6 kmh NNW 4.7 mph7.6 kmh 30.55 in1034.5 mb 0.00 in0.0 mm 0.00 in0.0 mm 0.75 in19.1 mm
11:03 PM 27.5°F-2.5°C 20.3°F-6.5°C 74% 2.2 mph N3.5 kmh N 4.7 mph7.6 kmh 30.55 in1034.5 mb 0.00 in0.0 mm 0.00 in0.0 mm 0.75 in19.1 mm
11:04 PM 27.5°F-2.5°C 20.3°F-6.5°C 74% 3.7 mph N6.0 kmh N 5.3 mph8.5 kmh 30.55 in1034.5 mb 0.00 in0.0 mm 0.00 in0.0 mm 0.75 in19.1 mm
11:05 PM 27.5°F-2.5°C 20.3°F-6.5°C 74% 2.2 mph N3.5 kmh N 5.3 mph8.5 kmh 30.55 in1034.5 mb 0.00 in0.0 mm 0.00 in0.0 mm 0.75 in19.1 mm
11:06 PM 27.5°F-2.5°C 20.3°F-6.5°C 74% 4.2 mph N6.8 kmh N 5.3 mph8.5 kmh 30.55 in1034.5 mb 0.00 in0.0 mm 0.00 in0.0 mm 0.75 in19.1 mm
11:07 PM 27.5°F-2.5°C 20.3°F-6.5°C 74% 2.2 mph N3.5 kmh N 5.3 mph8.5 kmh 30.55 in1034.5 mb 0.00 in0.0 mm 0.00 in0.0 mm 0.75 in19.1 mm
11:08 PM 27.5°F-2.5°C 20.3°F-6.5°C 74% 2.7 mph N4.3 kmh N 5.3 mph8.5 kmh 30.55 in1034.5 mb 0.00 in0.0 mm 0.00 in0.0 mm 0.75 in19.1 mm
11:09 PM 27.5°F-2.5°C 20.3°F-6.5°C 74% 2.7 mph N4.3 kmh N 5.3 mph8.5 kmh 30.55 in1034.5 mb 0.00 in0.0 mm 0.00 in0.0 mm 0.75 in19.1 mm
11:10 PM 27.5°F-2.5°C 20.3°F-6.5°C 74% 3.2 mph N5.1 kmh N 5.3 mph8.5 kmh 30.55 in1034.5 mb 0.00 in0.0 mm 0.00 in0.0 mm 0.75 in19.1 mm
11:11 PM 27.5°F-2.5°C 20.3°F-6.5°C 74% 2.7 mph N4.3 kmh N 5.3 mph8.5 kmh 30.55 in1034.5 mb 0.00 in0.0 mm 0.00 in0.0 mm 0.75 in19.1 mm
11:12 PM 27.5°F-2.5°C 20.6°F-6.3°C 75% 4.7 mph N7.6 kmh N 5.3 mph8.5 kmh 30.55 in1034.5 mb 0.00 in0.0 mm 0.00 in0.0 mm 0.75 in19.1 mm
11:13 PM 27.3°F-2.6°C 20.1°F-6.6°C 74% 2.7 mph N4.3 kmh N 5.3 mph8.5 kmh 30.55 in1034.5 mb 0.00 in0.0 mm 0.00 in0.0 mm 0.75 in19.1 mm
11:14 PM 27.3°F-2.6°C 20.1°F-6.6°C 74% 3.2 mph N5.1 kmh N 4.7 mph7.6 kmh 30.55 in1034.5 mb 0.00 in0.0 mm 0.00 in0.0 mm 0.75 in19.1 mm
11:15 PM 27.3°F-2.6°C 20.1°F-6.6°C 74% 3.2 mph NNW5.1 kmh NNW 4.7 mph7.6 kmh 30.55 in1034.5 mb 0.00 in0.0 mm 0.00 in0.0 mm 0.75 in19.1 mm
11:16 PM 27.3°F-2.6°C 20.1°F-6.6°C 74% 3.2 mph N5.1 kmh N 4.7 mph7.6 kmh 30.55 in1034.5 mb 0.00 in0.0 mm 0.00 in0.0 mm 0.75 in19.1 mm
11:17 PM 27.3°F-2.6°C 20.1°F-6.6°C 74% 3.7 mph N6.0 kmh N 4.7 mph7.6 kmh 30.55 in1034.5 mb 0.00 in0.0 mm 0.00 in0.0 mm 0.75 in19.1 mm
11:18 PM 27.3°F-2.6°C 20.1°F-6.6°C 74% 3.7 mph N6.0 kmh N 4.7 mph7.6 kmh 30.55 in1034.5 mb 0.00 in0.0 mm 0.00 in0.0 mm 0.75 in19.1 mm
11:19 PM 27.3°F-2.6°C 20.1°F-6.6°C 74% 3.7 mph N6.0 kmh N 4.7 mph7.6 kmh 30.55 in1034.5 mb 0.00 in0.0 mm 0.00 in0.0 mm 0.75 in19.1 mm
11:20 PM 27.3°F-2.6°C 20.1°F-6.6°C 74% 2.7 mph NW4.3 kmh NW 4.7 mph7.6 kmh 30.55 in1034.5 mb 0.00 in0.0 mm 0.00 in0.0 mm 0.75 in19.1 mm
11:21 PM 27.1°F-2.7°C 20.0°F-6.7°C 74% 4.7 mph N7.6 kmh N 4.7 mph7.6 kmh 30.55 in1034.5 mb 0.00 in0.0 mm 0.00 in0.0 mm 0.75 in19.1 mm
11:22 PM 27.1°F-2.7°C 20.3°F-6.5°C 75% 2.7 mph N4.3 kmh N 4.7 mph7.6 kmh 30.55 in1034.5 mb 0.00 in0.0 mm 0.00 in0.0 mm 0.75 in19.1 mm
11:23 PM 27.1°F-2.7°C 20.3°F-6.5°C 75% 3.7 mph N6.0 kmh N 4.7 mph7.6 kmh 30.55 in1034.5 mb 0.00 in0.0 mm 0.00 in0.0 mm 0.75 in19.1 mm
11:24 PM 27.1°F-2.7°C 20.3°F-6.5°C 75% 2.2 mph N3.5 kmh N 4.7 mph7.6 kmh 30.55 in1034.5 mb 0.00 in0.0 mm 0.00 in0.0 mm 0.75 in19.1 mm
11:25 PM 27.1°F-2.7°C 20.3°F-6.5°C 75% 4.2 mph N6.8 kmh N 4.7 mph7.6 kmh 30.55 in1034.5 mb 0.00 in0.0 mm 0.00 in0.0 mm 0.75 in19.1 mm
11:26 PM 27.1°F-2.7°C 20.3°F-6.5°C 75% 4.2 mph N6.8 kmh N 4.7 mph7.6 kmh 30.55 in1034.5 mb 0.00 in0.0 mm 0.00 in0.0 mm 0.75 in19.1 mm
11:27 PM 27.1°F-2.7°C 20.3°F-6.5°C 75% 2.7 mph N4.3 kmh N 4.7 mph7.6 kmh 30.55 in1034.5 mb 0.00 in0.0 mm 0.00 in0.0 mm 0.75 in19.1 mm
11:28 PM 27.1°F-2.7°C 20.3°F-6.5°C 75% Calm Calm 4.7 mph7.6 kmh 30.55 in1034.5 mb 0.00 in0.0 mm 0.00 in0.0 mm 0.75 in19.1 mm
11:29 PM 27.1°F-2.7°C 20.3°F-6.5°C 75% 4.2 mph N6.8 kmh N 4.7 mph7.6 kmh 30.55 in1034.5 mb 0.00 in0.0 mm 0.00 in0.0 mm 0.75 in19.1 mm
11:30 PM 27.1°F-2.7°C 20.3°F-6.5°C 75% 4.2 mph NNE6.8 kmh NNE 4.7 mph7.6 kmh 30.55 in1034.5 mb 0.00 in0.0 mm 0.00 in0.0 mm 0.75 in19.1 mm
11:31 PM 27.1°F-2.7°C 20.3°F-6.5°C 75% 2.7 mph N4.3 kmh N 4.7 mph7.6 kmh 30.55 in1034.5 mb 0.00 in0.0 mm 0.00 in0.0 mm 0.75 in19.1 mm
11:32 PM 27.1°F-2.7°C 20.3°F-6.5°C 75% 3.7 mph NW6.0 kmh NW 5.3 mph8.5 kmh 30.55 in1034.5 mb 0.00 in0.0 mm 0.00 in0.0 mm 0.75 in19.1 mm
11:33 PM 27.1°F-2.7°C 20.0°F-6.7°C 74% 4.2 mph NW6.8 kmh NW 6.3 mph10.1 kmh 30.55 in1034.5 mb 0.00 in0.0 mm 0.00 in0.0 mm 0.75 in19.1 mm
11:34 PM 27.1°F-2.7°C 20.0°F-6.7°C 74% 2.2 mph N3.5 kmh N 6.3 mph10.1 kmh 30.55 in1034.5 mb 0.00 in0.0 mm 0.00 in0.0 mm 0.75 in19.1 mm
11:35 PM 27.1°F-2.7°C 20.0°F-6.7°C 74% 3.2 mph NW5.1 kmh NW 6.3 mph10.1 kmh 30.55 in1034.5 mb 0.00 in0.0 mm 0.00 in0.0 mm 0.75 in19.1 mm
11:36 PM 27.0°F-2.8°C 19.8°F-6.8°C 74% 2.7 mph NNW4.3 kmh NNW 6.3 mph10.1 kmh 30.55 in1034.5 mb 0.00 in0.0 mm 0.00 in0.0 mm 0.75 in19.1 mm
11:37 PM 27.0°F-2.8°C 19.8°F-6.8°C 74% 2.2 mph N3.5 kmh N 6.3 mph10.1 kmh 30.55 in1034.5 mb 0.00 in0.0 mm 0.00 in0.0 mm 0.75 in19.1 mm
11:38 PM 27.0°F-2.8°C 19.8°F-6.8°C 74% 3.2 mph N5.1 kmh N 6.3 mph10.1 kmh 30.55 in1034.5 mb 0.00 in0.0 mm 0.00 in0.0 mm 0.75 in19.1 mm
11:39 PM 27.0°F-2.8°C 20.1°F-6.6°C 75% 4.7 mph N7.6 kmh N 6.3 mph10.1 kmh 30.55 in1034.5 mb 0.00 in0.0 mm 0.00 in0.0 mm 0.75 in19.1 mm
11:40 PM 27.0°F-2.8°C 20.1°F-6.6°C 75% 4.7 mph NW7.6 kmh NW 6.3 mph10.1 kmh 30.55 in1034.5 mb 0.00 in0.0 mm 0.00 in0.0 mm 0.75 in19.1 mm
11:41 PM 27.0°F-2.8°C 20.1°F-6.6°C 75% 2.7 mph NW4.3 kmh NW 6.3 mph10.1 kmh 30.55 in1034.5 mb 0.00 in0.0 mm 0.00 in0.0 mm 0.75 in19.1 mm
11:42 PM 27.0°F-2.8°C 20.1°F-6.6°C 75% Calm Calm 6.3 mph10.1 kmh 30.55 in1034.5 mb 0.00 in0.0 mm 0.00 in0.0 mm 0.75 in19.1 mm
11:43 PM 27.0°F-2.8°C 20.1°F-6.6°C 75% 3.7 mph NNW6.0 kmh NNW 4.7 mph7.6 kmh 30.55 in1034.5 mb 0.00 in0.0 mm 0.00 in0.0 mm 0.75 in19.1 mm
11:44 PM 26.8°F-2.9°C 19.9°F-6.7°C 75% 3.7 mph NNW6.0 kmh NNW 6.8 mph10.9 kmh 30.55 in1034.5 mb 0.00 in0.0 mm 0.00 in0.0 mm 0.75 in19.1 mm
11:45 PM 26.8°F-2.9°C 19.9°F-6.7°C 75% 2.2 mph NNW3.5 kmh NNW 6.8 mph10.9 kmh 30.55 in1034.5 mb 0.00 in0.0 mm 0.00 in0.0 mm 0.75 in19.1 mm
11:46 PM 26.8°F-2.9°C 19.9°F-6.7°C 75% 2.7 mph NW4.3 kmh NW 6.8 mph10.9 kmh 30.55 in1034.5 mb 0.00 in0.0 mm 0.00 in0.0 mm 0.75 in19.1 mm
11:47 PM 26.8°F-2.9°C 19.9°F-6.7°C 75% 2.7 mph NW4.3 kmh NW 6.8 mph10.9 kmh 30.55 in1034.5 mb 0.00 in0.0 mm 0.00 in0.0 mm 0.75 in19.1 mm
11:48 PM 26.8°F-2.9°C 19.9°F-6.7°C 75% 5.3 mph NNE8.5 kmh NNE 6.8 mph10.9 kmh 30.55 in1034.5 mb 0.00 in0.0 mm 0.00 in0.0 mm 0.75 in19.1 mm
11:49 PM 26.8°F-2.9°C 19.9°F-6.7°C 75% 3.2 mph N5.1 kmh N 6.8 mph10.9 kmh 30.55 in1034.5 mb 0.00 in0.0 mm 0.00 in0.0 mm 0.75 in19.1 mm
11:50 PM 26.8°F-2.9°C 19.9°F-6.7°C 75% 2.7 mph N4.3 kmh N 6.8 mph10.9 kmh 30.55 in1034.5 mb 0.00 in0.0 mm 0.00 in0.0 mm 0.75 in19.1 mm
11:51 PM 26.8°F-2.9°C 19.9°F-6.7°C 75% Calm Calm 6.8 mph10.9 kmh 30.55 in1034.5 mb 0.00 in0.0 mm 0.00 in0.0 mm 0.75 in19.1 mm
11:52 PM 26.8°F-2.9°C 19.9°F-6.7°C 75% 2.7 mph NW4.3 kmh NW 6.8 mph10.9 kmh 30.55 in1034.5 mb 0.00 in0.0 mm 0.00 in0.0 mm 0.75 in19.1 mm
11:53 PM 26.8°F-2.9°C 19.9°F-6.7°C 75% 2.2 mph NW3.5 kmh NW 6.8 mph10.9 kmh 30.55 in1034.5 mb 0.00 in0.0 mm 0.00 in0.0 mm 0.75 in19.1 mm
11:54 PM 26.6°F-3.0°C 19.8°F-6.8°C 75% 2.2 mph N3.5 kmh N 5.3 mph8.5 kmh 30.55 in1034.5 mb 0.00 in0.0 mm 0.00 in0.0 mm 0.75 in19.1 mm
11:55 PM 26.6°F-3.0°C 19.8°F-6.8°C 75% 4.7 mph NNW7.6 kmh NNW 5.3 mph8.5 kmh 30.55 in1034.5 mb 0.00 in0.0 mm 0.00 in0.0 mm 0.75 in19.1 mm
11:56 PM 26.6°F-3.0°C 19.8°F-6.8°C 75% 2.7 mph NW4.3 kmh NW 5.3 mph8.5 kmh 30.55 in1034.5 mb 0.00 in0.0 mm 0.00 in0.0 mm 0.75 in19.1 mm
11:57 PM 26.6°F-3.0°C 20.1°F-6.6°C 76% 3.7 mph NW6.0 kmh NW 5.3 mph8.5 kmh 30.55 in1034.5 mb 0.00 in0.0 mm 0.00 in0.0 mm 0.75 in19.1 mm
11:58 PM 26.6°F-3.0°C 20.1°F-6.6°C 76% 2.7 mph N4.3 kmh N 5.3 mph8.5 kmh 30.55 in1034.5 mb 0.00 in0.0 mm 0.00 in0.0 mm 0.75 in19.1 mm
11:59 PM 26.6°F-3.0°C 20.1°F-6.6°C 76% 3.7 mph N6.0 kmh N 4.7 mph7.6 kmh 30.55 in1034.5 mb 0.00 in0.0 mm 0.00 in0.0 mm 0.75 in19.1 mm